<?xml version="1.0" encoding="UTF-8" standalone="no" ?>
<gpx xmlns="http://www.topografix.com/GPX/1/1" xmlns:xsi="http://www.w3.org/2001/XMLSchema-instance" xsi:schemaLocation="http://www.topografix.com/GPX/1/1 http://www.topografix.com/GPX/1/1/gpx.xsd" version="1.1" creator="VisuGPX - https://www.visugpx.com">
  <metadata>
    <name>Tour de Vallée petite forme</name>
    <desc><![CDATA[Autour d\'Argeles Gazost (65)]]></desc>
  </metadata>
  <trk>
    <name><![CDATA[tr vallée pour petite forme]]></name>
    <trkseg>
      <trkpt lat="43.00504" lon="-0.08245">
        <ele>372.17</ele>
        <time>2013-11-06T14:20:52Z</time>
      </trkpt>
      <trkpt lat="43.005" lon="-0.08243">
        <ele>372.17</ele>
        <time>2013-11-06T14:20:53Z</time>
      </trkpt>
      <trkpt lat="43.00502" lon="-0.08245">
        <ele>373.13</ele>
        <time>2013-11-06T14:21:16Z</time>
      </trkpt>
      <trkpt lat="43.005" lon="-0.08243">
        <ele>373.61</ele>
        <time>2013-11-06T14:21:46Z</time>
      </trkpt>
      <trkpt lat="43.00504" lon="-0.08236">
        <ele>374.09</ele>
        <time>2013-11-06T14:22:06Z</time>
      </trkpt>
      <trkpt lat="43.00503" lon="-0.08235">
        <ele>374.09</ele>
        <time>2013-11-06T14:22:23Z</time>
      </trkpt>
      <trkpt lat="43.00505" lon="-0.0821">
        <ele>375.05</ele>
        <time>2013-11-06T14:22:35Z</time>
      </trkpt>
      <trkpt lat="43.00507" lon="-0.08209">
        <ele>375.05</ele>
        <time>2013-11-06T14:22:36Z</time>
      </trkpt>
      <trkpt lat="43.00514" lon="-0.08205">
        <ele>375.05</ele>
        <time>2013-11-06T14:22:39Z</time>
      </trkpt>
      <trkpt lat="43.00516" lon="-0.08193">
        <ele>375.53</ele>
        <time>2013-11-06T14:22:43Z</time>
      </trkpt>
      <trkpt lat="43.00535" lon="-0.08192">
        <ele>376.97</ele>
        <time>2013-11-06T14:22:53Z</time>
      </trkpt>
      <trkpt lat="43.00541" lon="-0.08192">
        <ele>377.45</ele>
        <time>2013-11-06T14:22:56Z</time>
      </trkpt>
      <trkpt lat="43.00544" lon="-0.08165">
        <ele>377.94</ele>
        <time>2013-11-06T14:23:06Z</time>
      </trkpt>
      <trkpt lat="43.00543" lon="-0.08158">
        <ele>378.42</ele>
        <time>2013-11-06T14:23:08Z</time>
      </trkpt>
      <trkpt lat="43.00539" lon="-0.08099">
        <ele>378.9</ele>
        <time>2013-11-06T14:23:23Z</time>
      </trkpt>
      <trkpt lat="43.00518" lon="-0.08059">
        <ele>379.38</ele>
        <time>2013-11-06T14:23:35Z</time>
      </trkpt>
      <trkpt lat="43.00506" lon="-0.08046">
        <ele>379.86</ele>
        <time>2013-11-06T14:23:39Z</time>
      </trkpt>
      <trkpt lat="43.005" lon="-0.08032">
        <ele>379.86</ele>
        <time>2013-11-06T14:23:42Z</time>
      </trkpt>
      <trkpt lat="43.00496" lon="-0.08017">
        <ele>379.86</ele>
        <time>2013-11-06T14:23:45Z</time>
      </trkpt>
      <trkpt lat="43.00488" lon="-0.07997">
        <ele>379.86</ele>
        <time>2013-11-06T14:23:49Z</time>
      </trkpt>
      <trkpt lat="43.0048" lon="-0.0798">
        <ele>379.38</ele>
        <time>2013-11-06T14:23:52Z</time>
      </trkpt>
      <trkpt lat="43.00468" lon="-0.07963">
        <ele>379.38</ele>
        <time>2013-11-06T14:23:55Z</time>
      </trkpt>
      <trkpt lat="43.00457" lon="-0.0794">
        <ele>380.82</ele>
        <time>2013-11-06T14:23:59Z</time>
      </trkpt>
      <trkpt lat="43.00452" lon="-0.07926">
        <ele>383.22</ele>
        <time>2013-11-06T14:24:04Z</time>
      </trkpt>
      <trkpt lat="43.00451" lon="-0.07917">
        <ele>384.66</ele>
        <time>2013-11-06T14:24:14Z</time>
      </trkpt>
      <trkpt lat="43.00451" lon="-0.07918">
        <ele>385.63</ele>
        <time>2013-11-06T14:24:31Z</time>
      </trkpt>
      <trkpt lat="43.00449" lon="-0.07911">
        <ele>388.51</ele>
        <time>2013-11-06T14:24:43Z</time>
      </trkpt>
      <trkpt lat="43.00448" lon="-0.07907">
        <ele>388.99</ele>
        <time>2013-11-06T14:24:50Z</time>
      </trkpt>
      <trkpt lat="43.0044" lon="-0.07901">
        <ele>389.47</ele>
        <time>2013-11-06T14:25:01Z</time>
      </trkpt>
      <trkpt lat="43.00433" lon="-0.07894">
        <ele>390.91</ele>
        <time>2013-11-06T14:25:10Z</time>
      </trkpt>
      <trkpt lat="43.00421" lon="-0.07882">
        <ele>392.36</ele>
        <time>2013-11-06T14:25:18Z</time>
      </trkpt>
      <trkpt lat="43.00406" lon="-0.07854">
        <ele>393.8</ele>
        <time>2013-11-06T14:25:31Z</time>
      </trkpt>
      <trkpt lat="43.00393" lon="-0.07828">
        <ele>394.76</ele>
        <time>2013-11-06T14:25:43Z</time>
      </trkpt>
      <trkpt lat="43.00386" lon="-0.07808">
        <ele>397.16</ele>
        <time>2013-11-06T14:25:51Z</time>
      </trkpt>
      <trkpt lat="43.00378" lon="-0.07778">
        <ele>397.64</ele>
        <time>2013-11-06T14:26:02Z</time>
      </trkpt>
      <trkpt lat="43.00375" lon="-0.07772">
        <ele>398.12</ele>
        <time>2013-11-06T14:26:05Z</time>
      </trkpt>
      <trkpt lat="43.00372" lon="-0.07752">
        <ele>399.08</ele>
        <time>2013-11-06T14:26:12Z</time>
      </trkpt>
      <trkpt lat="43.00364" lon="-0.07725">
        <ele>399.57</ele>
        <time>2013-11-06T14:26:23Z</time>
      </trkpt>
      <trkpt lat="43.00362" lon="-0.07721">
        <ele>399.08</ele>
        <time>2013-11-06T14:26:24Z</time>
      </trkpt>
      <trkpt lat="43.00358" lon="-0.07707">
        <ele>399.57</ele>
        <time>2013-11-06T14:26:29Z</time>
      </trkpt>
      <trkpt lat="43.00356" lon="-0.07694">
        <ele>400.05</ele>
        <time>2013-11-06T14:26:34Z</time>
      </trkpt>
      <trkpt lat="43.00353" lon="-0.07685">
        <ele>400.53</ele>
        <time>2013-11-06T14:26:37Z</time>
      </trkpt>
      <trkpt lat="43.00353" lon="-0.07682">
        <ele>400.05</ele>
        <time>2013-11-06T14:26:40Z</time>
      </trkpt>
      <trkpt lat="43.00344" lon="-0.07653">
        <ele>401.01</ele>
        <time>2013-11-06T14:26:52Z</time>
      </trkpt>
      <trkpt lat="43.00333" lon="-0.07626">
        <ele>401.97</ele>
        <time>2013-11-06T14:27:03Z</time>
      </trkpt>
      <trkpt lat="43.00323" lon="-0.07598">
        <ele>401.97</ele>
        <time>2013-11-06T14:27:13Z</time>
      </trkpt>
      <trkpt lat="43.00319" lon="-0.07578">
        <ele>402.45</ele>
        <time>2013-11-06T14:27:19Z</time>
      </trkpt>
      <trkpt lat="43.00318" lon="-0.07572">
        <ele>402.45</ele>
        <time>2013-11-06T14:27:21Z</time>
      </trkpt>
      <trkpt lat="43.00322" lon="-0.07537">
        <ele>404.37</ele>
        <time>2013-11-06T14:27:33Z</time>
      </trkpt>
      <trkpt lat="43.00325" lon="-0.07513">
        <ele>405.33</ele>
        <time>2013-11-06T14:27:42Z</time>
      </trkpt>
      <trkpt lat="43.00325" lon="-0.07475">
        <ele>406.77</ele>
        <time>2013-11-06T14:27:53Z</time>
      </trkpt>
      <trkpt lat="43.00327" lon="-0.0747">
        <ele>405.81</ele>
        <time>2013-11-06T14:27:54Z</time>
      </trkpt>
      <trkpt lat="43.0034" lon="-0.07424">
        <ele>404.37</ele>
        <time>2013-11-06T14:28:01Z</time>
      </trkpt>
      <trkpt lat="43.00338" lon="-0.07389">
        <ele>403.41</ele>
        <time>2013-11-06T14:28:05Z</time>
      </trkpt>
      <trkpt lat="43.00339" lon="-0.07374">
        <ele>402.93</ele>
        <time>2013-11-06T14:28:07Z</time>
      </trkpt>
      <trkpt lat="43.00348" lon="-0.07356">
        <ele>403.89</ele>
        <time>2013-11-06T14:28:11Z</time>
      </trkpt>
      <trkpt lat="43.00353" lon="-0.07345">
        <ele>406.77</ele>
        <time>2013-11-06T14:28:15Z</time>
      </trkpt>
      <trkpt lat="43.00359" lon="-0.07339">
        <ele>406.77</ele>
        <time>2013-11-06T14:28:18Z</time>
      </trkpt>
      <trkpt lat="43.00395" lon="-0.07306">
        <ele>408.22</ele>
        <time>2013-11-06T14:28:33Z</time>
      </trkpt>
      <trkpt lat="43.00425" lon="-0.0729">
        <ele>409.66</ele>
        <time>2013-11-06T14:28:44Z</time>
      </trkpt>
      <trkpt lat="43.00458" lon="-0.07276">
        <ele>412.06</ele>
        <time>2013-11-06T14:28:57Z</time>
      </trkpt>
      <trkpt lat="43.00479" lon="-0.07265">
        <ele>414.95</ele>
        <time>2013-11-06T14:29:08Z</time>
      </trkpt>
      <trkpt lat="43.00483" lon="-0.07261">
        <ele>415.91</ele>
        <time>2013-11-06T14:29:12Z</time>
      </trkpt>
      <trkpt lat="43.00492" lon="-0.07248">
        <ele>416.87</ele>
        <time>2013-11-06T14:29:18Z</time>
      </trkpt>
      <trkpt lat="43.00529" lon="-0.07219">
        <ele>420.23</ele>
        <time>2013-11-06T14:29:36Z</time>
      </trkpt>
      <trkpt lat="43.00548" lon="-0.07209">
        <ele>422.16</ele>
        <time>2013-11-06T14:29:44Z</time>
      </trkpt>
      <trkpt lat="43.00581" lon="-0.07175">
        <ele>423.6</ele>
        <time>2013-11-06T14:29:59Z</time>
      </trkpt>
      <trkpt lat="43.00617" lon="-0.07163">
        <ele>423.6</ele>
        <time>2013-11-06T14:30:12Z</time>
      </trkpt>
      <trkpt lat="43.00629" lon="-0.07131">
        <ele>423.12</ele>
        <time>2013-11-06T14:30:21Z</time>
      </trkpt>
      <trkpt lat="43.00651" lon="-0.07104">
        <ele>423.12</ele>
        <time>2013-11-06T14:30:30Z</time>
      </trkpt>
      <trkpt lat="43.00683" lon="-0.07085">
        <ele>426</ele>
        <time>2013-11-06T14:30:42Z</time>
      </trkpt>
      <trkpt lat="43.00716" lon="-0.07069">
        <ele>426</ele>
        <time>2013-11-06T14:30:54Z</time>
      </trkpt>
      <trkpt lat="43.00759" lon="-0.07047">
        <ele>426.48</ele>
        <time>2013-11-06T14:31:09Z</time>
      </trkpt>
      <trkpt lat="43.00785" lon="-0.07033">
        <ele>424.56</ele>
        <time>2013-11-06T14:31:16Z</time>
      </trkpt>
      <trkpt lat="43.00806" lon="-0.07021">
        <ele>424.08</ele>
        <time>2013-11-06T14:31:21Z</time>
      </trkpt>
      <trkpt lat="43.00822" lon="-0.07012">
        <ele>424.08</ele>
        <time>2013-11-06T14:31:25Z</time>
      </trkpt>
      <trkpt lat="43.00843" lon="-0.07004">
        <ele>424.08</ele>
        <time>2013-11-06T14:31:32Z</time>
      </trkpt>
      <trkpt lat="43.0085" lon="-0.07">
        <ele>424.08</ele>
        <time>2013-11-06T14:31:34Z</time>
      </trkpt>
      <trkpt lat="43.00864" lon="-0.06992">
        <ele>421.68</ele>
        <time>2013-11-06T14:31:37Z</time>
      </trkpt>
      <trkpt lat="43.00897" lon="-0.06989">
        <ele>420.23</ele>
        <time>2013-11-06T14:31:43Z</time>
      </trkpt>
      <trkpt lat="43.00945" lon="-0.06999">
        <ele>419.75</ele>
        <time>2013-11-06T14:31:53Z</time>
      </trkpt>
      <trkpt lat="43.00968" lon="-0.06998">
        <ele>419.27</ele>
        <time>2013-11-06T14:31:58Z</time>
      </trkpt>
      <trkpt lat="43.01014" lon="-0.06994">
        <ele>419.27</ele>
        <time>2013-11-06T14:32:08Z</time>
      </trkpt>
      <trkpt lat="43.01062" lon="-0.06991">
        <ele>420.71</ele>
        <time>2013-11-06T14:32:21Z</time>
      </trkpt>
      <trkpt lat="43.0109" lon="-0.06986">
        <ele>424.08</ele>
        <time>2013-11-06T14:32:33Z</time>
      </trkpt>
      <trkpt lat="43.01104" lon="-0.06986">
        <ele>424.08</ele>
        <time>2013-11-06T14:32:39Z</time>
      </trkpt>
      <trkpt lat="43.01122" lon="-0.06947">
        <ele>421.68</ele>
        <time>2013-11-06T14:32:47Z</time>
      </trkpt>
      <trkpt lat="43.01136" lon="-0.06909">
        <ele>423.12</ele>
        <time>2013-11-06T14:32:57Z</time>
      </trkpt>
      <trkpt lat="43.0114" lon="-0.06897">
        <ele>423.12</ele>
        <time>2013-11-06T14:33:00Z</time>
      </trkpt>
      <trkpt lat="43.01144" lon="-0.0688">
        <ele>422.16</ele>
        <time>2013-11-06T14:33:03Z</time>
      </trkpt>
      <trkpt lat="43.01148" lon="-0.06849">
        <ele>420.23</ele>
        <time>2013-11-06T14:33:08Z</time>
      </trkpt>
      <trkpt lat="43.01153" lon="-0.06817">
        <ele>418.31</ele>
        <time>2013-11-06T14:33:13Z</time>
      </trkpt>
      <trkpt lat="43.01159" lon="-0.06797">
        <ele>414.47</ele>
        <time>2013-11-06T14:33:17Z</time>
      </trkpt>
      <trkpt lat="43.01173" lon="-0.06763">
        <ele>410.62</ele>
        <time>2013-11-06T14:33:22Z</time>
      </trkpt>
      <trkpt lat="43.01192" lon="-0.06731">
        <ele>411.58</ele>
        <time>2013-11-06T14:33:33Z</time>
      </trkpt>
      <trkpt lat="43.01202" lon="-0.06715">
        <ele>412.06</ele>
        <time>2013-11-06T14:33:39Z</time>
      </trkpt>
      <trkpt lat="43.01238" lon="-0.06706">
        <ele>413.98</ele>
        <time>2013-11-06T14:33:52Z</time>
      </trkpt>
      <trkpt lat="43.01279" lon="-0.06696">
        <ele>415.91</ele>
        <time>2013-11-06T14:34:06Z</time>
      </trkpt>
      <trkpt lat="43.01311" lon="-0.06682">
        <ele>418.79</ele>
        <time>2013-11-06T14:34:19Z</time>
      </trkpt>
      <trkpt lat="43.01341" lon="-0.06674">
        <ele>421.19</ele>
        <time>2013-11-06T14:34:32Z</time>
      </trkpt>
      <trkpt lat="43.01358" lon="-0.0667">
        <ele>422.16</ele>
        <time>2013-11-06T14:34:46Z</time>
      </trkpt>
      <trkpt lat="43.01359" lon="-0.0667">
        <ele>422.16</ele>
        <time>2013-11-06T14:34:47Z</time>
      </trkpt>
      <trkpt lat="43.01349" lon="-0.06685">
        <ele>421.68</ele>
        <time>2013-11-06T14:34:53Z</time>
      </trkpt>
      <trkpt lat="43.01348" lon="-0.06722">
        <ele>420.23</ele>
        <time>2013-11-06T14:34:58Z</time>
      </trkpt>
      <trkpt lat="43.01351" lon="-0.06749">
        <ele>418.79</ele>
        <time>2013-11-06T14:35:01Z</time>
      </trkpt>
      <trkpt lat="43.01333" lon="-0.06788">
        <ele>416.87</ele>
        <time>2013-11-06T14:35:07Z</time>
      </trkpt>
      <trkpt lat="43.01326" lon="-0.0681">
        <ele>415.43</ele>
        <time>2013-11-06T14:35:10Z</time>
      </trkpt>
      <trkpt lat="43.01324" lon="-0.06848">
        <ele>413.02</ele>
        <time>2013-11-06T14:35:14Z</time>
      </trkpt>
      <trkpt lat="43.01347" lon="-0.06961">
        <ele>410.14</ele>
        <time>2013-11-06T14:35:26Z</time>
      </trkpt>
      <trkpt lat="43.01357" lon="-0.07002">
        <ele>408.7</ele>
        <time>2013-11-06T14:35:30Z</time>
      </trkpt>
      <trkpt lat="43.01369" lon="-0.07055">
        <ele>407.26</ele>
        <time>2013-11-06T14:35:35Z</time>
      </trkpt>
      <trkpt lat="43.01372" lon="-0.07113">
        <ele>406.77</ele>
        <time>2013-11-06T14:35:41Z</time>
      </trkpt>
      <trkpt lat="43.0138" lon="-0.07145">
        <ele>406.77</ele>
        <time>2013-11-06T14:35:45Z</time>
      </trkpt>
      <trkpt lat="43.01385" lon="-0.07165">
        <ele>406.29</ele>
        <time>2013-11-06T14:35:48Z</time>
      </trkpt>
      <trkpt lat="43.01415" lon="-0.07205">
        <ele>403.41</ele>
        <time>2013-11-06T14:35:56Z</time>
      </trkpt>
      <trkpt lat="43.01411" lon="-0.07238">
        <ele>403.41</ele>
        <time>2013-11-06T14:36:01Z</time>
      </trkpt>
      <trkpt lat="43.01399" lon="-0.07296">
        <ele>405.33</ele>
        <time>2013-11-06T14:36:13Z</time>
      </trkpt>
      <trkpt lat="43.01388" lon="-0.0734">
        <ele>406.77</ele>
        <time>2013-11-06T14:36:24Z</time>
      </trkpt>
      <trkpt lat="43.01371" lon="-0.07376">
        <ele>409.18</ele>
        <time>2013-11-06T14:36:37Z</time>
      </trkpt>
      <trkpt lat="43.01358" lon="-0.07397">
        <ele>413.02</ele>
        <time>2013-11-06T14:36:46Z</time>
      </trkpt>
      <trkpt lat="43.01352" lon="-0.07412">
        <ele>414.47</ele>
        <time>2013-11-06T14:36:51Z</time>
      </trkpt>
      <trkpt lat="43.01359" lon="-0.0746">
        <ele>416.39</ele>
        <time>2013-11-06T14:37:05Z</time>
      </trkpt>
      <trkpt lat="43.01357" lon="-0.07504">
        <ele>417.35</ele>
        <time>2013-11-06T14:37:17Z</time>
      </trkpt>
      <trkpt lat="43.01365" lon="-0.07556">
        <ele>418.31</ele>
        <time>2013-11-06T14:37:29Z</time>
      </trkpt>
      <trkpt lat="43.01376" lon="-0.07575">
        <ele>420.71</ele>
        <time>2013-11-06T14:37:37Z</time>
      </trkpt>
      <trkpt lat="43.01391" lon="-0.07583">
        <ele>425.04</ele>
        <time>2013-11-06T14:37:46Z</time>
      </trkpt>
      <trkpt lat="43.01412" lon="-0.07592">
        <ele>428.89</ele>
        <time>2013-11-06T14:37:58Z</time>
      </trkpt>
      <trkpt lat="43.01416" lon="-0.07594">
        <ele>428.89</ele>
        <time>2013-11-06T14:38:00Z</time>
      </trkpt>
      <trkpt lat="43.01442" lon="-0.07598">
        <ele>432.25</ele>
        <time>2013-11-06T14:38:13Z</time>
      </trkpt>
      <trkpt lat="43.01446" lon="-0.07599">
        <ele>433.69</ele>
        <time>2013-11-06T14:38:15Z</time>
      </trkpt>
      <trkpt lat="43.01463" lon="-0.0759">
        <ele>437.06</ele>
        <time>2013-11-06T14:38:26Z</time>
      </trkpt>
      <trkpt lat="43.01464" lon="-0.07589">
        <ele>437.54</ele>
        <time>2013-11-06T14:38:27Z</time>
      </trkpt>
      <trkpt lat="43.01473" lon="-0.07584">
        <ele>439.46</ele>
        <time>2013-11-06T14:38:33Z</time>
      </trkpt>
      <trkpt lat="43.01494" lon="-0.07584">
        <ele>443.79</ele>
        <time>2013-11-06T14:38:46Z</time>
      </trkpt>
      <trkpt lat="43.015" lon="-0.07584">
        <ele>445.71</ele>
        <time>2013-11-06T14:38:50Z</time>
      </trkpt>
      <trkpt lat="43.01501" lon="-0.07584">
        <ele>445.23</ele>
        <time>2013-11-06T14:38:51Z</time>
      </trkpt>
      <trkpt lat="43.01493" lon="-0.07598">
        <ele>447.15</ele>
        <time>2013-11-06T14:39:01Z</time>
      </trkpt>
      <trkpt lat="43.01467" lon="-0.07616">
        <ele>449.07</ele>
        <time>2013-11-06T14:39:15Z</time>
      </trkpt>
      <trkpt lat="43.01447" lon="-0.07641">
        <ele>450.52</ele>
        <time>2013-11-06T14:39:27Z</time>
      </trkpt>
      <trkpt lat="43.01444" lon="-0.07689">
        <ele>452.92</ele>
        <time>2013-11-06T14:39:43Z</time>
      </trkpt>
      <trkpt lat="43.01443" lon="-0.07733">
        <ele>454.84</ele>
        <time>2013-11-06T14:39:57Z</time>
      </trkpt>
      <trkpt lat="43.01439" lon="-0.07774">
        <ele>455.8</ele>
        <time>2013-11-06T14:40:10Z</time>
      </trkpt>
      <trkpt lat="43.01439" lon="-0.0779">
        <ele>457.72</ele>
        <time>2013-11-06T14:40:15Z</time>
      </trkpt>
      <trkpt lat="43.01441" lon="-0.07794">
        <ele>458.21</ele>
        <time>2013-11-06T14:40:17Z</time>
      </trkpt>
      <trkpt lat="43.01447" lon="-0.07792">
        <ele>458.69</ele>
        <time>2013-11-06T14:40:21Z</time>
      </trkpt>
      <trkpt lat="43.01464" lon="-0.07761">
        <ele>461.57</ele>
        <time>2013-11-06T14:40:35Z</time>
      </trkpt>
      <trkpt lat="43.01476" lon="-0.07725">
        <ele>464.93</ele>
        <time>2013-11-06T14:40:49Z</time>
      </trkpt>
      <trkpt lat="43.01486" lon="-0.07701">
        <ele>467.82</ele>
        <time>2013-11-06T14:41:00Z</time>
      </trkpt>
      <trkpt lat="43.01494" lon="-0.0768">
        <ele>470.22</ele>
        <time>2013-11-06T14:41:09Z</time>
      </trkpt>
      <trkpt lat="43.01501" lon="-0.07683">
        <ele>471.18</ele>
        <time>2013-11-06T14:41:13Z</time>
      </trkpt>
      <trkpt lat="43.01515" lon="-0.07699">
        <ele>475.03</ele>
        <time>2013-11-06T14:41:24Z</time>
      </trkpt>
      <trkpt lat="43.01528" lon="-0.077">
        <ele>475.99</ele>
        <time>2013-11-06T14:41:31Z</time>
      </trkpt>
      <trkpt lat="43.01542" lon="-0.07704">
        <ele>477.91</ele>
        <time>2013-11-06T14:41:41Z</time>
      </trkpt>
      <trkpt lat="43.01546" lon="-0.07706">
        <ele>478.87</ele>
        <time>2013-11-06T14:41:44Z</time>
      </trkpt>
      <trkpt lat="43.01558" lon="-0.07707">
        <ele>481.28</ele>
        <time>2013-11-06T14:41:51Z</time>
      </trkpt>
      <trkpt lat="43.01563" lon="-0.07709">
        <ele>482.72</ele>
        <time>2013-11-06T14:41:55Z</time>
      </trkpt>
      <trkpt lat="43.01571" lon="-0.07709">
        <ele>483.68</ele>
        <time>2013-11-06T14:42:01Z</time>
      </trkpt>
      <trkpt lat="43.01582" lon="-0.07699">
        <ele>486.08</ele>
        <time>2013-11-06T14:42:10Z</time>
      </trkpt>
      <trkpt lat="43.01585" lon="-0.07693">
        <ele>487.53</ele>
        <time>2013-11-06T14:42:13Z</time>
      </trkpt>
      <trkpt lat="43.01588" lon="-0.07684">
        <ele>488.01</ele>
        <time>2013-11-06T14:42:17Z</time>
      </trkpt>
      <trkpt lat="43.01597" lon="-0.07668">
        <ele>489.45</ele>
        <time>2013-11-06T14:42:25Z</time>
      </trkpt>
      <trkpt lat="43.01603" lon="-0.07659">
        <ele>491.37</ele>
        <time>2013-11-06T14:42:31Z</time>
      </trkpt>
      <trkpt lat="43.01615" lon="-0.07651">
        <ele>492.33</ele>
        <time>2013-11-06T14:42:39Z</time>
      </trkpt>
      <trkpt lat="43.01642" lon="-0.07649">
        <ele>495.22</ele>
        <time>2013-11-06T14:42:52Z</time>
      </trkpt>
      <trkpt lat="43.01645" lon="-0.07651">
        <ele>496.18</ele>
        <time>2013-11-06T14:42:54Z</time>
      </trkpt>
      <trkpt lat="43.01658" lon="-0.07644">
        <ele>499.06</ele>
        <time>2013-11-06T14:43:03Z</time>
      </trkpt>
      <trkpt lat="43.01659" lon="-0.07643">
        <ele>499.06</ele>
        <time>2013-11-06T14:43:04Z</time>
      </trkpt>
      <trkpt lat="43.0166" lon="-0.07641">
        <ele>499.54</ele>
        <time>2013-11-06T14:43:05Z</time>
      </trkpt>
      <trkpt lat="43.01667" lon="-0.07637">
        <ele>500.5</ele>
        <time>2013-11-06T14:43:10Z</time>
      </trkpt>
      <trkpt lat="43.01671" lon="-0.07645">
        <ele>501.95</ele>
        <time>2013-11-06T14:43:15Z</time>
      </trkpt>
      <trkpt lat="43.01666" lon="-0.07658">
        <ele>502.91</ele>
        <time>2013-11-06T14:43:22Z</time>
      </trkpt>
      <trkpt lat="43.0166" lon="-0.07675">
        <ele>505.31</ele>
        <time>2013-11-06T14:43:32Z</time>
      </trkpt>
      <trkpt lat="43.01657" lon="-0.07679">
        <ele>506.75</ele>
        <time>2013-11-06T14:43:35Z</time>
      </trkpt>
      <trkpt lat="43.01655" lon="-0.07683">
        <ele>507.23</ele>
        <time>2013-11-06T14:43:39Z</time>
      </trkpt>
      <trkpt lat="43.01653" lon="-0.07687">
        <ele>509.64</ele>
        <time>2013-11-06T14:43:45Z</time>
      </trkpt>
      <trkpt lat="43.01657" lon="-0.07689">
        <ele>511.08</ele>
        <time>2013-11-06T14:43:50Z</time>
      </trkpt>
      <trkpt lat="43.0166" lon="-0.07701">
        <ele>512.52</ele>
        <time>2013-11-06T14:43:57Z</time>
      </trkpt>
      <trkpt lat="43.01658" lon="-0.07721">
        <ele>515.88</ele>
        <time>2013-11-06T14:44:09Z</time>
      </trkpt>
      <trkpt lat="43.01658" lon="-0.07726">
        <ele>515.88</ele>
        <time>2013-11-06T14:44:12Z</time>
      </trkpt>
      <trkpt lat="43.01657" lon="-0.07734">
        <ele>516.85</ele>
        <time>2013-11-06T14:44:16Z</time>
      </trkpt>
      <trkpt lat="43.01654" lon="-0.07743">
        <ele>517.33</ele>
        <time>2013-11-06T14:44:20Z</time>
      </trkpt>
      <trkpt lat="43.01653" lon="-0.07748">
        <ele>518.29</ele>
        <time>2013-11-06T14:44:23Z</time>
      </trkpt>
      <trkpt lat="43.01652" lon="-0.07753">
        <ele>518.77</ele>
        <time>2013-11-06T14:44:25Z</time>
      </trkpt>
      <trkpt lat="43.01642" lon="-0.07766">
        <ele>520.69</ele>
        <time>2013-11-06T14:44:33Z</time>
      </trkpt>
      <trkpt lat="43.01625" lon="-0.07788">
        <ele>523.09</ele>
        <time>2013-11-06T14:44:48Z</time>
      </trkpt>
      <trkpt lat="43.01622" lon="-0.0779">
        <ele>524.54</ele>
        <time>2013-11-06T14:44:51Z</time>
      </trkpt>
      <trkpt lat="43.01614" lon="-0.07802">
        <ele>526.46</ele>
        <time>2013-11-06T14:44:58Z</time>
      </trkpt>
      <trkpt lat="43.01603" lon="-0.07821">
        <ele>527.42</ele>
        <time>2013-11-06T14:45:08Z</time>
      </trkpt>
      <trkpt lat="43.01604" lon="-0.07851">
        <ele>528.86</ele>
        <time>2013-11-06T14:45:20Z</time>
      </trkpt>
      <trkpt lat="43.01607" lon="-0.07884">
        <ele>529.82</ele>
        <time>2013-11-06T14:45:32Z</time>
      </trkpt>
      <trkpt lat="43.01607" lon="-0.07898">
        <ele>530.3</ele>
        <time>2013-11-06T14:45:37Z</time>
      </trkpt>
      <trkpt lat="43.01608" lon="-0.07925">
        <ele>534.15</ele>
        <time>2013-11-06T14:45:49Z</time>
      </trkpt>
      <trkpt lat="43.01618" lon="-0.0795">
        <ele>537.99</ele>
        <time>2013-11-06T14:46:02Z</time>
      </trkpt>
      <trkpt lat="43.01628" lon="-0.07974">
        <ele>539.92</ele>
        <time>2013-11-06T14:46:15Z</time>
      </trkpt>
      <trkpt lat="43.01641" lon="-0.08003">
        <ele>542.32</ele>
        <time>2013-11-06T14:46:27Z</time>
      </trkpt>
      <trkpt lat="43.01657" lon="-0.08039">
        <ele>542.8</ele>
        <time>2013-11-06T14:46:38Z</time>
      </trkpt>
      <trkpt lat="43.01672" lon="-0.08066">
        <ele>543.76</ele>
        <time>2013-11-06T14:46:46Z</time>
      </trkpt>
      <trkpt lat="43.01678" lon="-0.08073">
        <ele>545.2</ele>
        <time>2013-11-06T14:46:50Z</time>
      </trkpt>
      <trkpt lat="43.01702" lon="-0.08094">
        <ele>548.09</ele>
        <time>2013-11-06T14:47:03Z</time>
      </trkpt>
      <trkpt lat="43.01708" lon="-0.08098">
        <ele>547.61</ele>
        <time>2013-11-06T14:47:06Z</time>
      </trkpt>
      <trkpt lat="43.01724" lon="-0.08067">
        <ele>548.57</ele>
        <time>2013-11-06T14:47:18Z</time>
      </trkpt>
      <trkpt lat="43.01745" lon="-0.08036">
        <ele>550.01</ele>
        <time>2013-11-06T14:47:32Z</time>
      </trkpt>
      <trkpt lat="43.01756" lon="-0.08007">
        <ele>551.45</ele>
        <time>2013-11-06T14:47:42Z</time>
      </trkpt>
      <trkpt lat="43.01764" lon="-0.07992">
        <ele>553.38</ele>
        <time>2013-11-06T14:47:48Z</time>
      </trkpt>
      <trkpt lat="43.01758" lon="-0.0799">
        <ele>554.82</ele>
        <time>2013-11-06T14:47:54Z</time>
      </trkpt>
      <trkpt lat="43.0174" lon="-0.08008">
        <ele>556.26</ele>
        <time>2013-11-06T14:48:04Z</time>
      </trkpt>
      <trkpt lat="43.01731" lon="-0.08012">
        <ele>556.74</ele>
        <time>2013-11-06T14:48:08Z</time>
      </trkpt>
      <trkpt lat="43.01731" lon="-0.08005">
        <ele>560.11</ele>
        <time>2013-11-06T14:48:16Z</time>
      </trkpt>
      <trkpt lat="43.01733" lon="-0.08003">
        <ele>560.11</ele>
        <time>2013-11-06T14:48:17Z</time>
      </trkpt>
      <trkpt lat="43.01737" lon="-0.07995">
        <ele>561.55</ele>
        <time>2013-11-06T14:48:22Z</time>
      </trkpt>
      <trkpt lat="43.0174" lon="-0.07983">
        <ele>562.03</ele>
        <time>2013-11-06T14:48:27Z</time>
      </trkpt>
      <trkpt lat="43.01753" lon="-0.07931">
        <ele>562.51</ele>
        <time>2013-11-06T14:48:44Z</time>
      </trkpt>
      <trkpt lat="43.01755" lon="-0.07921">
        <ele>562.99</ele>
        <time>2013-11-06T14:48:47Z</time>
      </trkpt>
      <trkpt lat="43.01766" lon="-0.07901">
        <ele>564.43</ele>
        <time>2013-11-06T14:48:57Z</time>
      </trkpt>
      <trkpt lat="43.01767" lon="-0.07894">
        <ele>565.87</ele>
        <time>2013-11-06T14:49:08Z</time>
      </trkpt>
      <trkpt lat="43.01771" lon="-0.07896">
        <ele>565.39</ele>
        <time>2013-11-06T14:49:18Z</time>
      </trkpt>
      <trkpt lat="43.01772" lon="-0.07897">
        <ele>565.87</ele>
        <time>2013-11-06T14:49:58Z</time>
      </trkpt>
      <trkpt lat="43.01772" lon="-0.07898">
        <ele>565.87</ele>
        <time>2013-11-06T14:50:35Z</time>
      </trkpt>
      <trkpt lat="43.01773" lon="-0.07898">
        <ele>566.35</ele>
        <time>2013-11-06T14:51:15Z</time>
      </trkpt>
      <trkpt lat="43.01772" lon="-0.07898">
        <ele>567.32</ele>
        <time>2013-11-06T14:51:49Z</time>
      </trkpt>
      <trkpt lat="43.01773" lon="-0.07898">
        <ele>567.8</ele>
        <time>2013-11-06T14:52:29Z</time>
      </trkpt>
      <trkpt lat="43.01772" lon="-0.07897">
        <ele>568.28</ele>
        <time>2013-11-06T14:53:08Z</time>
      </trkpt>
      <trkpt lat="43.01772" lon="-0.07898">
        <ele>568.28</ele>
        <time>2013-11-06T14:53:48Z</time>
      </trkpt>
      <trkpt lat="43.01771" lon="-0.079">
        <ele>569.24</ele>
        <time>2013-11-06T14:54:21Z</time>
      </trkpt>
      <trkpt lat="43.01772" lon="-0.07899">
        <ele>568.76</ele>
        <time>2013-11-06T14:54:56Z</time>
      </trkpt>
      <trkpt lat="43.01773" lon="-0.07899">
        <ele>569.72</ele>
        <time>2013-11-06T14:55:37Z</time>
      </trkpt>
      <trkpt lat="43.01773" lon="-0.07897">
        <ele>569.72</ele>
        <time>2013-11-06T14:56:16Z</time>
      </trkpt>
      <trkpt lat="43.01771" lon="-0.07896">
        <ele>571.64</ele>
        <time>2013-11-06T14:56:52Z</time>
      </trkpt>
      <trkpt lat="43.01769" lon="-0.07897">
        <ele>571.16</ele>
        <time>2013-11-06T14:57:16Z</time>
      </trkpt>
      <trkpt lat="43.01769" lon="-0.07896">
        <ele>571.16</ele>
        <time>2013-11-06T14:57:30Z</time>
      </trkpt>
      <trkpt lat="43.01768" lon="-0.07896">
        <ele>571.64</ele>
        <time>2013-11-06T14:57:37Z</time>
      </trkpt>
      <trkpt lat="43.01765" lon="-0.07894">
        <ele>570.2</ele>
        <time>2013-11-06T14:57:44Z</time>
      </trkpt>
      <trkpt lat="43.01766" lon="-0.079">
        <ele>570.2</ele>
        <time>2013-11-06T14:57:49Z</time>
      </trkpt>
      <trkpt lat="43.01768" lon="-0.07899">
        <ele>571.16</ele>
        <time>2013-11-06T14:57:52Z</time>
      </trkpt>
      <trkpt lat="43.01766" lon="-0.0789">
        <ele>570.68</ele>
        <time>2013-11-06T14:57:59Z</time>
      </trkpt>
      <trkpt lat="43.01769" lon="-0.07881">
        <ele>570.2</ele>
        <time>2013-11-06T14:58:04Z</time>
      </trkpt>
      <trkpt lat="43.01774" lon="-0.07862">
        <ele>572.12</ele>
        <time>2013-11-06T14:58:11Z</time>
      </trkpt>
      <trkpt lat="43.01783" lon="-0.07842">
        <ele>572.12</ele>
        <time>2013-11-06T14:58:19Z</time>
      </trkpt>
      <trkpt lat="43.01781" lon="-0.07828">
        <ele>573.56</ele>
        <time>2013-11-06T14:58:28Z</time>
      </trkpt>
      <trkpt lat="43.0178" lon="-0.07825">
        <ele>574.04</ele>
        <time>2013-11-06T14:58:29Z</time>
      </trkpt>
      <trkpt lat="43.01775" lon="-0.07819">
        <ele>575.01</ele>
        <time>2013-11-06T14:58:33Z</time>
      </trkpt>
      <trkpt lat="43.01768" lon="-0.07811">
        <ele>574.04</ele>
        <time>2013-11-06T14:58:38Z</time>
      </trkpt>
      <trkpt lat="43.01766" lon="-0.07803">
        <ele>572.12</ele>
        <time>2013-11-06T14:58:41Z</time>
      </trkpt>
      <trkpt lat="43.01766" lon="-0.07798">
        <ele>570.68</ele>
        <time>2013-11-06T14:58:43Z</time>
      </trkpt>
      <trkpt lat="43.01763" lon="-0.07788">
        <ele>570.2</ele>
        <time>2013-11-06T14:58:45Z</time>
      </trkpt>
      <trkpt lat="43.0176" lon="-0.0778">
        <ele>568.76</ele>
        <time>2013-11-06T14:58:47Z</time>
      </trkpt>
      <trkpt lat="43.01748" lon="-0.07764">
        <ele>568.76</ele>
        <time>2013-11-06T14:58:53Z</time>
      </trkpt>
      <trkpt lat="43.01744" lon="-0.07757">
        <ele>567.8</ele>
        <time>2013-11-06T14:59:03Z</time>
      </trkpt>
      <trkpt lat="43.01744" lon="-0.07757">
        <ele>568.28</ele>
        <time>2013-11-06T14:59:04Z</time>
      </trkpt>
      <trkpt lat="43.01739" lon="-0.07756">
        <ele>566.35</ele>
        <time>2013-11-06T14:59:09Z</time>
      </trkpt>
      <trkpt lat="43.01724" lon="-0.07761">
        <ele>561.55</ele>
        <time>2013-11-06T14:59:14Z</time>
      </trkpt>
      <trkpt lat="43.01723" lon="-0.0776">
        <ele>561.55</ele>
        <time>2013-11-06T14:59:15Z</time>
      </trkpt>
      <trkpt lat="43.01726" lon="-0.07751">
        <ele>560.11</ele>
        <time>2013-11-06T14:59:18Z</time>
      </trkpt>
      <trkpt lat="43.01735" lon="-0.07737">
        <ele>558.66</ele>
        <time>2013-11-06T14:59:22Z</time>
      </trkpt>
      <trkpt lat="43.01761" lon="-0.0774">
        <ele>554.34</ele>
        <time>2013-11-06T14:59:28Z</time>
      </trkpt>
      <trkpt lat="43.0177" lon="-0.07738">
        <ele>553.38</ele>
        <time>2013-11-06T14:59:30Z</time>
      </trkpt>
      <trkpt lat="43.0178" lon="-0.07736">
        <ele>552.41</ele>
        <time>2013-11-06T14:59:35Z</time>
      </trkpt>
      <trkpt lat="43.01793" lon="-0.07729">
        <ele>551.93</ele>
        <time>2013-11-06T14:59:45Z</time>
      </trkpt>
      <trkpt lat="43.01798" lon="-0.07742">
        <ele>553.38</ele>
        <time>2013-11-06T14:59:51Z</time>
      </trkpt>
      <trkpt lat="43.01804" lon="-0.07756">
        <ele>554.34</ele>
        <time>2013-11-06T14:59:57Z</time>
      </trkpt>
      <trkpt lat="43.0182" lon="-0.07787">
        <ele>556.74</ele>
        <time>2013-11-06T15:00:12Z</time>
      </trkpt>
      <trkpt lat="43.0183" lon="-0.07806">
        <ele>556.74</ele>
        <time>2013-11-06T15:00:19Z</time>
      </trkpt>
      <trkpt lat="43.01843" lon="-0.07847">
        <ele>552.41</ele>
        <time>2013-11-06T15:00:26Z</time>
      </trkpt>
      <trkpt lat="43.01841" lon="-0.07852">
        <ele>552.9</ele>
        <time>2013-11-06T15:00:27Z</time>
      </trkpt>
      <trkpt lat="43.01828" lon="-0.07886">
        <ele>551.45</ele>
        <time>2013-11-06T15:00:37Z</time>
      </trkpt>
      <trkpt lat="43.01826" lon="-0.07928">
        <ele>549.05</ele>
        <time>2013-11-06T15:00:48Z</time>
      </trkpt>
      <trkpt lat="43.01827" lon="-0.07936">
        <ele>547.13</ele>
        <time>2013-11-06T15:00:50Z</time>
      </trkpt>
      <trkpt lat="43.01838" lon="-0.07962">
        <ele>543.28</ele>
        <time>2013-11-06T15:00:55Z</time>
      </trkpt>
      <trkpt lat="43.01831" lon="-0.07971">
        <ele>540.4</ele>
        <time>2013-11-06T15:01:00Z</time>
      </trkpt>
      <trkpt lat="43.01814" lon="-0.07989">
        <ele>536.55</ele>
        <time>2013-11-06T15:01:06Z</time>
      </trkpt>
      <trkpt lat="43.01816" lon="-0.07994">
        <ele>535.59</ele>
        <time>2013-11-06T15:01:07Z</time>
      </trkpt>
      <trkpt lat="43.01825" lon="-0.08008">
        <ele>533.19</ele>
        <time>2013-11-06T15:01:10Z</time>
      </trkpt>
      <trkpt lat="43.01843" lon="-0.08038">
        <ele>529.34</ele>
        <time>2013-11-06T15:01:16Z</time>
      </trkpt>
      <trkpt lat="43.01848" lon="-0.08047">
        <ele>527.42</ele>
        <time>2013-11-06T15:01:18Z</time>
      </trkpt>
      <trkpt lat="43.01861" lon="-0.08045">
        <ele>524.06</ele>
        <time>2013-11-06T15:01:22Z</time>
      </trkpt>
      <trkpt lat="43.0186" lon="-0.08053">
        <ele>523.09</ele>
        <time>2013-11-06T15:01:26Z</time>
      </trkpt>
      <trkpt lat="43.01841" lon="-0.08074">
        <ele>518.77</ele>
        <time>2013-11-06T15:01:32Z</time>
      </trkpt>
      <trkpt lat="43.01819" lon="-0.08077">
        <ele>514.44</ele>
        <time>2013-11-06T15:01:37Z</time>
      </trkpt>
      <trkpt lat="43.01813" lon="-0.08099">
        <ele>510.6</ele>
        <time>2013-11-06T15:01:41Z</time>
      </trkpt>
      <trkpt lat="43.01804" lon="-0.0812">
        <ele>506.27</ele>
        <time>2013-11-06T15:01:45Z</time>
      </trkpt>
      <trkpt lat="43.01801" lon="-0.08124">
        <ele>506.27</ele>
        <time>2013-11-06T15:01:46Z</time>
      </trkpt>
      <trkpt lat="43.01798" lon="-0.08127">
        <ele>505.31</ele>
        <time>2013-11-06T15:01:47Z</time>
      </trkpt>
      <trkpt lat="43.01788" lon="-0.08146">
        <ele>499.06</ele>
        <time>2013-11-06T15:01:52Z</time>
      </trkpt>
      <trkpt lat="43.01781" lon="-0.08159">
        <ele>495.7</ele>
        <time>2013-11-06T15:01:54Z</time>
      </trkpt>
      <trkpt lat="43.01772" lon="-0.08198">
        <ele>489.93</ele>
        <time>2013-11-06T15:02:00Z</time>
      </trkpt>
      <trkpt lat="43.0177" lon="-0.08212">
        <ele>488.49</ele>
        <time>2013-11-06T15:02:02Z</time>
      </trkpt>
      <trkpt lat="43.0177" lon="-0.08224">
        <ele>485.6</ele>
        <time>2013-11-06T15:02:04Z</time>
      </trkpt>
      <trkpt lat="43.01768" lon="-0.08234">
        <ele>484.64</ele>
        <time>2013-11-06T15:02:06Z</time>
      </trkpt>
      <trkpt lat="43.0176" lon="-0.08254">
        <ele>481.28</ele>
        <time>2013-11-06T15:02:10Z</time>
      </trkpt>
      <trkpt lat="43.01753" lon="-0.08266">
        <ele>478.39</ele>
        <time>2013-11-06T15:02:14Z</time>
      </trkpt>
      <trkpt lat="43.01763" lon="-0.08262">
        <ele>475.03</ele>
        <time>2013-11-06T15:02:19Z</time>
      </trkpt>
      <trkpt lat="43.01766" lon="-0.08269">
        <ele>471.66</ele>
        <time>2013-11-06T15:02:24Z</time>
      </trkpt>
      <trkpt lat="43.01765" lon="-0.0827">
        <ele>471.66</ele>
        <time>2013-11-06T15:02:25Z</time>
      </trkpt>
      <trkpt lat="43.01738" lon="-0.08297">
        <ele>468.3</ele>
        <time>2013-11-06T15:02:34Z</time>
      </trkpt>
      <trkpt lat="43.01708" lon="-0.08311">
        <ele>464.93</ele>
        <time>2013-11-06T15:02:40Z</time>
      </trkpt>
      <trkpt lat="43.01688" lon="-0.08311">
        <ele>463.01</ele>
        <time>2013-11-06T15:02:44Z</time>
      </trkpt>
      <trkpt lat="43.01675" lon="-0.08309">
        <ele>460.61</ele>
        <time>2013-11-06T15:02:46Z</time>
      </trkpt>
      <trkpt lat="43.01644" lon="-0.0831">
        <ele>458.69</ele>
        <time>2013-11-06T15:02:51Z</time>
      </trkpt>
      <trkpt lat="43.01635" lon="-0.08314">
        <ele>457.72</ele>
        <time>2013-11-06T15:02:53Z</time>
      </trkpt>
      <trkpt lat="43.01628" lon="-0.08322">
        <ele>457.24</ele>
        <time>2013-11-06T15:02:55Z</time>
      </trkpt>
      <trkpt lat="43.01621" lon="-0.08329">
        <ele>455.32</ele>
        <time>2013-11-06T15:02:57Z</time>
      </trkpt>
      <trkpt lat="43.01609" lon="-0.08342">
        <ele>453.4</ele>
        <time>2013-11-06T15:03:00Z</time>
      </trkpt>
      <trkpt lat="43.0159" lon="-0.08352">
        <ele>449.07</ele>
        <time>2013-11-06T15:03:05Z</time>
      </trkpt>
      <trkpt lat="43.01572" lon="-0.08362">
        <ele>445.71</ele>
        <time>2013-11-06T15:03:09Z</time>
      </trkpt>
      <trkpt lat="43.01567" lon="-0.08366">
        <ele>445.23</ele>
        <time>2013-11-06T15:03:10Z</time>
      </trkpt>
      <trkpt lat="43.01538" lon="-0.08383">
        <ele>442.34</ele>
        <time>2013-11-06T15:03:17Z</time>
      </trkpt>
      <trkpt lat="43.01543" lon="-0.08391">
        <ele>438.98</ele>
        <time>2013-11-06T15:03:23Z</time>
      </trkpt>
      <trkpt lat="43.01548" lon="-0.08392">
        <ele>437.06</ele>
        <time>2013-11-06T15:03:25Z</time>
      </trkpt>
      <trkpt lat="43.01572" lon="-0.08391">
        <ele>432.73</ele>
        <time>2013-11-06T15:03:31Z</time>
      </trkpt>
      <trkpt lat="43.01584" lon="-0.08393">
        <ele>431.29</ele>
        <time>2013-11-06T15:03:33Z</time>
      </trkpt>
      <trkpt lat="43.01601" lon="-0.08396">
        <ele>429.85</ele>
        <time>2013-11-06T15:03:37Z</time>
      </trkpt>
      <trkpt lat="43.01628" lon="-0.08386">
        <ele>426</ele>
        <time>2013-11-06T15:03:44Z</time>
      </trkpt>
      <trkpt lat="43.01633" lon="-0.08387">
        <ele>425.52</ele>
        <time>2013-11-06T15:03:45Z</time>
      </trkpt>
      <trkpt lat="43.01648" lon="-0.08393">
        <ele>421.19</ele>
        <time>2013-11-06T15:03:49Z</time>
      </trkpt>
      <trkpt lat="43.01658" lon="-0.08403">
        <ele>418.79</ele>
        <time>2013-11-06T15:03:53Z</time>
      </trkpt>
      <trkpt lat="43.01665" lon="-0.08415">
        <ele>414.47</ele>
        <time>2013-11-06T15:03:58Z</time>
      </trkpt>
      <trkpt lat="43.01667" lon="-0.08417">
        <ele>413.02</ele>
        <time>2013-11-06T15:04:00Z</time>
      </trkpt>
      <trkpt lat="43.0166" lon="-0.0843">
        <ele>408.22</ele>
        <time>2013-11-06T15:04:05Z</time>
      </trkpt>
      <trkpt lat="43.01661" lon="-0.08439">
        <ele>405.33</ele>
        <time>2013-11-06T15:04:09Z</time>
      </trkpt>
      <trkpt lat="43.01663" lon="-0.08439">
        <ele>405.81</ele>
        <time>2013-11-06T15:04:10Z</time>
      </trkpt>
      <trkpt lat="43.01671" lon="-0.08442">
        <ele>404.37</ele>
        <time>2013-11-06T15:04:13Z</time>
      </trkpt>
      <trkpt lat="43.01683" lon="-0.08437">
        <ele>405.33</ele>
        <time>2013-11-06T15:04:18Z</time>
      </trkpt>
      <trkpt lat="43.01699" lon="-0.08442">
        <ele>405.81</ele>
        <time>2013-11-06T15:04:27Z</time>
      </trkpt>
      <trkpt lat="43.01711" lon="-0.08441">
        <ele>407.74</ele>
        <time>2013-11-06T15:04:33Z</time>
      </trkpt>
      <trkpt lat="43.01714" lon="-0.0844">
        <ele>407.74</ele>
        <time>2013-11-06T15:04:35Z</time>
      </trkpt>
      <trkpt lat="43.01741" lon="-0.08437">
        <ele>409.66</ele>
        <time>2013-11-06T15:04:45Z</time>
      </trkpt>
      <trkpt lat="43.01766" lon="-0.08427">
        <ele>410.14</ele>
        <time>2013-11-06T15:04:55Z</time>
      </trkpt>
      <trkpt lat="43.01786" lon="-0.08403">
        <ele>407.74</ele>
        <time>2013-11-06T15:05:01Z</time>
      </trkpt>
      <trkpt lat="43.01793" lon="-0.08399">
        <ele>407.74</ele>
        <time>2013-11-06T15:05:03Z</time>
      </trkpt>
      <trkpt lat="43.01809" lon="-0.0839">
        <ele>404.85</ele>
        <time>2013-11-06T15:05:07Z</time>
      </trkpt>
      <trkpt lat="43.01821" lon="-0.08377">
        <ele>402.93</ele>
        <time>2013-11-06T15:05:10Z</time>
      </trkpt>
      <trkpt lat="43.01825" lon="-0.08374">
        <ele>402.45</ele>
        <time>2013-11-06T15:05:11Z</time>
      </trkpt>
      <trkpt lat="43.0184" lon="-0.0837">
        <ele>405.81</ele>
        <time>2013-11-06T15:05:15Z</time>
      </trkpt>
      <trkpt lat="43.01847" lon="-0.08368">
        <ele>406.77</ele>
        <time>2013-11-06T15:05:18Z</time>
      </trkpt>
      <trkpt lat="43.01879" lon="-0.0836">
        <ele>406.77</ele>
        <time>2013-11-06T15:05:28Z</time>
      </trkpt>
      <trkpt lat="43.01899" lon="-0.08344">
        <ele>407.26</ele>
        <time>2013-11-06T15:05:36Z</time>
      </trkpt>
      <trkpt lat="43.01903" lon="-0.08344">
        <ele>407.26</ele>
        <time>2013-11-06T15:05:37Z</time>
      </trkpt>
      <trkpt lat="43.01912" lon="-0.0834">
        <ele>405.81</ele>
        <time>2013-11-06T15:05:40Z</time>
      </trkpt>
      <trkpt lat="43.01921" lon="-0.08337">
        <ele>404.85</ele>
        <time>2013-11-06T15:05:42Z</time>
      </trkpt>
      <trkpt lat="43.01935" lon="-0.08324">
        <ele>404.85</ele>
        <time>2013-11-06T15:05:45Z</time>
      </trkpt>
      <trkpt lat="43.01951" lon="-0.08299">
        <ele>404.37</ele>
        <time>2013-11-06T15:05:51Z</time>
      </trkpt>
      <trkpt lat="43.01954" lon="-0.08295">
        <ele>404.37</ele>
        <time>2013-11-06T15:05:53Z</time>
      </trkpt>
      <trkpt lat="43.01975" lon="-0.08293">
        <ele>407.26</ele>
        <time>2013-11-06T15:06:03Z</time>
      </trkpt>
      <trkpt lat="43.01992" lon="-0.08288">
        <ele>407.26</ele>
        <time>2013-11-06T15:06:07Z</time>
      </trkpt>
      <trkpt lat="43.02001" lon="-0.08287">
        <ele>406.29</ele>
        <time>2013-11-06T15:06:09Z</time>
      </trkpt>
      <trkpt lat="43.02019" lon="-0.08274">
        <ele>406.29</ele>
        <time>2013-11-06T15:06:14Z</time>
      </trkpt>
      <trkpt lat="43.02023" lon="-0.08259">
        <ele>404.37</ele>
        <time>2013-11-06T15:06:18Z</time>
      </trkpt>
      <trkpt lat="43.02029" lon="-0.08256">
        <ele>402.93</ele>
        <time>2013-11-06T15:06:20Z</time>
      </trkpt>
      <trkpt lat="43.0204" lon="-0.08261">
        <ele>401.49</ele>
        <time>2013-11-06T15:06:22Z</time>
      </trkpt>
      <trkpt lat="43.02048" lon="-0.08267">
        <ele>400.53</ele>
        <time>2013-11-06T15:06:24Z</time>
      </trkpt>
      <trkpt lat="43.02057" lon="-0.08276">
        <ele>399.08</ele>
        <time>2013-11-06T15:06:27Z</time>
      </trkpt>
      <trkpt lat="43.02079" lon="-0.08282">
        <ele>397.16</ele>
        <time>2013-11-06T15:06:36Z</time>
      </trkpt>
      <trkpt lat="43.02088" lon="-0.08267">
        <ele>397.16</ele>
        <time>2013-11-06T15:06:44Z</time>
      </trkpt>
      <trkpt lat="43.02114" lon="-0.08244">
        <ele>397.16</ele>
        <time>2013-11-06T15:06:57Z</time>
      </trkpt>
      <trkpt lat="43.02135" lon="-0.08245">
        <ele>399.08</ele>
        <time>2013-11-06T15:07:06Z</time>
      </trkpt>
      <trkpt lat="43.02146" lon="-0.08241">
        <ele>399.08</ele>
        <time>2013-11-06T15:07:10Z</time>
      </trkpt>
      <trkpt lat="43.02158" lon="-0.0824">
        <ele>398.6</ele>
        <time>2013-11-06T15:07:15Z</time>
      </trkpt>
      <trkpt lat="43.02183" lon="-0.08224">
        <ele>399.08</ele>
        <time>2013-11-06T15:07:26Z</time>
      </trkpt>
      <trkpt lat="43.02187" lon="-0.08224">
        <ele>399.08</ele>
        <time>2013-11-06T15:07:29Z</time>
      </trkpt>
      <trkpt lat="43.02203" lon="-0.08216">
        <ele>399.08</ele>
        <time>2013-11-06T15:07:34Z</time>
      </trkpt>
      <trkpt lat="43.0221" lon="-0.08212">
        <ele>399.57</ele>
        <time>2013-11-06T15:07:36Z</time>
      </trkpt>
      <trkpt lat="43.02219" lon="-0.08223">
        <ele>400.53</ele>
        <time>2013-11-06T15:07:45Z</time>
      </trkpt>
      <trkpt lat="43.02222" lon="-0.08237">
        <ele>400.53</ele>
        <time>2013-11-06T15:07:51Z</time>
      </trkpt>
      <trkpt lat="43.02225" lon="-0.08267">
        <ele>400.05</ele>
        <time>2013-11-06T15:08:04Z</time>
      </trkpt>
      <trkpt lat="43.02226" lon="-0.08285">
        <ele>400.53</ele>
        <time>2013-11-06T15:08:09Z</time>
      </trkpt>
      <trkpt lat="43.02226" lon="-0.08307">
        <ele>400.53</ele>
        <time>2013-11-06T15:08:17Z</time>
      </trkpt>
      <trkpt lat="43.02228" lon="-0.08315">
        <ele>400.05</ele>
        <time>2013-11-06T15:08:24Z</time>
      </trkpt>
      <trkpt lat="43.0223" lon="-0.08309">
        <ele>397.16</ele>
        <time>2013-11-06T15:08:29Z</time>
      </trkpt>
      <trkpt lat="43.02231" lon="-0.0831">
        <ele>397.16</ele>
        <time>2013-11-06T15:08:30Z</time>
      </trkpt>
      <trkpt lat="43.02245" lon="-0.08317">
        <ele>398.12</ele>
        <time>2013-11-06T15:08:40Z</time>
      </trkpt>
      <trkpt lat="43.02251" lon="-0.08316">
        <ele>398.12</ele>
        <time>2013-11-06T15:08:53Z</time>
      </trkpt>
      <trkpt lat="43.02251" lon="-0.08315">
        <ele>398.12</ele>
        <time>2013-11-06T15:09:13Z</time>
      </trkpt>
      <trkpt lat="43.02251" lon="-0.08314">
        <ele>398.12</ele>
        <time>2013-11-06T15:09:30Z</time>
      </trkpt>
      <trkpt lat="43.02251" lon="-0.08314">
        <ele>398.12</ele>
        <time>2013-11-06T15:09:55Z</time>
      </trkpt>
      <trkpt lat="43.02254" lon="-0.08317">
        <ele>398.12</ele>
        <time>2013-11-06T15:10:16Z</time>
      </trkpt>
      <trkpt lat="43.02255" lon="-0.08318">
        <ele>398.6</ele>
        <time>2013-11-06T15:10:35Z</time>
      </trkpt>
      <trkpt lat="43.02255" lon="-0.08319">
        <ele>398.12</ele>
        <time>2013-11-06T15:10:59Z</time>
      </trkpt>
      <trkpt lat="43.02254" lon="-0.08319">
        <ele>399.57</ele>
        <time>2013-11-06T15:11:24Z</time>
      </trkpt>
      <trkpt lat="43.02254" lon="-0.08316">
        <ele>399.08</ele>
        <time>2013-11-06T15:11:52Z</time>
      </trkpt>
      <trkpt lat="43.02254" lon="-0.08315">
        <ele>399.57</ele>
        <time>2013-11-06T15:12:11Z</time>
      </trkpt>
      <trkpt lat="43.02256" lon="-0.08314">
        <ele>399.08</ele>
        <time>2013-11-06T15:12:13Z</time>
      </trkpt>
      <trkpt lat="43.02264" lon="-0.08317">
        <ele>399.08</ele>
        <time>2013-11-06T15:12:17Z</time>
      </trkpt>
      <trkpt lat="43.02291" lon="-0.08327">
        <ele>398.6</ele>
        <time>2013-11-06T15:12:28Z</time>
      </trkpt>
      <trkpt lat="43.02309" lon="-0.0833">
        <ele>398.12</ele>
        <time>2013-11-06T15:12:37Z</time>
      </trkpt>
      <trkpt lat="43.02331" lon="-0.08341">
        <ele>398.12</ele>
        <time>2013-11-06T15:12:47Z</time>
      </trkpt>
      <trkpt lat="43.02364" lon="-0.08354">
        <ele>398.6</ele>
        <time>2013-11-06T15:12:58Z</time>
      </trkpt>
      <trkpt lat="43.02372" lon="-0.08361">
        <ele>398.12</ele>
        <time>2013-11-06T15:13:01Z</time>
      </trkpt>
      <trkpt lat="43.02382" lon="-0.08368">
        <ele>398.12</ele>
        <time>2013-11-06T15:13:05Z</time>
      </trkpt>
      <trkpt lat="43.02412" lon="-0.08363">
        <ele>397.64</ele>
        <time>2013-11-06T15:13:15Z</time>
      </trkpt>
      <trkpt lat="43.02419" lon="-0.08361">
        <ele>397.64</ele>
        <time>2013-11-06T15:13:17Z</time>
      </trkpt>
      <trkpt lat="43.02438" lon="-0.08394">
        <ele>397.64</ele>
        <time>2013-11-06T15:13:29Z</time>
      </trkpt>
      <trkpt lat="43.0243" lon="-0.08423">
        <ele>399.08</ele>
        <time>2013-11-06T15:13:39Z</time>
      </trkpt>
      <trkpt lat="43.02405" lon="-0.08437">
        <ele>399.57</ele>
        <time>2013-11-06T15:13:48Z</time>
      </trkpt>
      <trkpt lat="43.02397" lon="-0.08484">
        <ele>400.05</ele>
        <time>2013-11-06T15:13:59Z</time>
      </trkpt>
      <trkpt lat="43.02386" lon="-0.0855">
        <ele>400.53</ele>
        <time>2013-11-06T15:14:14Z</time>
      </trkpt>
      <trkpt lat="43.02374" lon="-0.0861">
        <ele>401.01</ele>
        <time>2013-11-06T15:14:28Z</time>
      </trkpt>
      <trkpt lat="43.02372" lon="-0.08671">
        <ele>401.97</ele>
        <time>2013-11-06T15:14:42Z</time>
      </trkpt>
      <trkpt lat="43.02402" lon="-0.08718">
        <ele>402.45</ele>
        <time>2013-11-06T15:14:56Z</time>
      </trkpt>
      <trkpt lat="43.0243" lon="-0.08721">
        <ele>402.45</ele>
        <time>2013-11-06T15:15:05Z</time>
      </trkpt>
      <trkpt lat="43.02462" lon="-0.08733">
        <ele>404.37</ele>
        <time>2013-11-06T15:15:17Z</time>
      </trkpt>
      <trkpt lat="43.02485" lon="-0.08777">
        <ele>405.33</ele>
        <time>2013-11-06T15:15:31Z</time>
      </trkpt>
      <trkpt lat="43.02495" lon="-0.08831">
        <ele>405.81</ele>
        <time>2013-11-06T15:15:45Z</time>
      </trkpt>
      <trkpt lat="43.0252" lon="-0.08877">
        <ele>406.77</ele>
        <time>2013-11-06T15:15:59Z</time>
      </trkpt>
      <trkpt lat="43.02554" lon="-0.08913">
        <ele>407.74</ele>
        <time>2013-11-06T15:16:13Z</time>
      </trkpt>
      <trkpt lat="43.02601" lon="-0.08943">
        <ele>409.18</ele>
        <time>2013-11-06T15:16:30Z</time>
      </trkpt>
      <trkpt lat="43.02632" lon="-0.08986">
        <ele>409.18</ele>
        <time>2013-11-06T15:16:44Z</time>
      </trkpt>
      <trkpt lat="43.02654" lon="-0.09053">
        <ele>411.1</ele>
        <time>2013-11-06T15:17:01Z</time>
      </trkpt>
      <trkpt lat="43.02665" lon="-0.09113">
        <ele>411.58</ele>
        <time>2013-11-06T15:17:16Z</time>
      </trkpt>
      <trkpt lat="43.0269" lon="-0.09156">
        <ele>413.02</ele>
        <time>2013-11-06T15:17:30Z</time>
      </trkpt>
      <trkpt lat="43.02719" lon="-0.09184">
        <ele>413.98</ele>
        <time>2013-11-06T15:17:42Z</time>
      </trkpt>
      <trkpt lat="43.02749" lon="-0.09228">
        <ele>414.95</ele>
        <time>2013-11-06T15:17:57Z</time>
      </trkpt>
      <trkpt lat="43.02746" lon="-0.09272">
        <ele>416.39</ele>
        <time>2013-11-06T15:18:09Z</time>
      </trkpt>
      <trkpt lat="43.02766" lon="-0.09308">
        <ele>417.83</ele>
        <time>2013-11-06T15:18:20Z</time>
      </trkpt>
      <trkpt lat="43.02788" lon="-0.09352">
        <ele>420.23</ele>
        <time>2013-11-06T15:18:33Z</time>
      </trkpt>
      <trkpt lat="43.02793" lon="-0.0936">
        <ele>420.23</ele>
        <time>2013-11-06T15:18:36Z</time>
      </trkpt>
      <trkpt lat="43.0283" lon="-0.09364">
        <ele>423.12</ele>
        <time>2013-11-06T15:18:51Z</time>
      </trkpt>
      <trkpt lat="43.02838" lon="-0.09353">
        <ele>424.56</ele>
        <time>2013-11-06T15:18:56Z</time>
      </trkpt>
      <trkpt lat="43.02862" lon="-0.09315">
        <ele>425.04</ele>
        <time>2013-11-06T15:19:09Z</time>
      </trkpt>
      <trkpt lat="43.02895" lon="-0.09278">
        <ele>424.56</ele>
        <time>2013-11-06T15:19:23Z</time>
      </trkpt>
      <trkpt lat="43.02935" lon="-0.09262">
        <ele>426.96</ele>
        <time>2013-11-06T15:19:37Z</time>
      </trkpt>
      <trkpt lat="43.02967" lon="-0.09261">
        <ele>429.37</ele>
        <time>2013-11-06T15:19:50Z</time>
      </trkpt>
      <trkpt lat="43.02983" lon="-0.0926">
        <ele>431.29</ele>
        <time>2013-11-06T15:19:57Z</time>
      </trkpt>
      <trkpt lat="43.02997" lon="-0.09272">
        <ele>432.73</ele>
        <time>2013-11-06T15:20:08Z</time>
      </trkpt>
      <trkpt lat="43.02998" lon="-0.09276">
        <ele>433.21</ele>
        <time>2013-11-06T15:20:10Z</time>
      </trkpt>
      <trkpt lat="43.03002" lon="-0.0929">
        <ele>435.13</ele>
        <time>2013-11-06T15:20:17Z</time>
      </trkpt>
      <trkpt lat="43.02989" lon="-0.09316">
        <ele>437.06</ele>
        <time>2013-11-06T15:20:27Z</time>
      </trkpt>
      <trkpt lat="43.02978" lon="-0.09335">
        <ele>438.98</ele>
        <time>2013-11-06T15:20:34Z</time>
      </trkpt>
      <trkpt lat="43.02962" lon="-0.09369">
        <ele>443.31</ele>
        <time>2013-11-06T15:20:45Z</time>
      </trkpt>
      <trkpt lat="43.02959" lon="-0.09382">
        <ele>444.75</ele>
        <time>2013-11-06T15:20:49Z</time>
      </trkpt>
      <trkpt lat="43.02955" lon="-0.09415">
        <ele>447.63</ele>
        <time>2013-11-06T15:20:59Z</time>
      </trkpt>
      <trkpt lat="43.02938" lon="-0.09443">
        <ele>451.48</ele>
        <time>2013-11-06T15:21:11Z</time>
      </trkpt>
      <trkpt lat="43.02925" lon="-0.09467">
        <ele>453.88</ele>
        <time>2013-11-06T15:21:21Z</time>
      </trkpt>
      <trkpt lat="43.02923" lon="-0.09481">
        <ele>455.32</ele>
        <time>2013-11-06T15:21:26Z</time>
      </trkpt>
      <trkpt lat="43.0293" lon="-0.09518">
        <ele>458.69</ele>
        <time>2013-11-06T15:21:38Z</time>
      </trkpt>
      <trkpt lat="43.02936" lon="-0.09549">
        <ele>461.57</ele>
        <time>2013-11-06T15:21:48Z</time>
      </trkpt>
      <trkpt lat="43.02925" lon="-0.09584">
        <ele>463.49</ele>
        <time>2013-11-06T15:21:59Z</time>
      </trkpt>
      <trkpt lat="43.029" lon="-0.09601">
        <ele>466.38</ele>
        <time>2013-11-06T15:22:10Z</time>
      </trkpt>
      <trkpt lat="43.02898" lon="-0.09636">
        <ele>469.74</ele>
        <time>2013-11-06T15:22:21Z</time>
      </trkpt>
      <trkpt lat="43.02903" lon="-0.09659">
        <ele>472.63</ele>
        <time>2013-11-06T15:22:29Z</time>
      </trkpt>
      <trkpt lat="43.02912" lon="-0.09701">
        <ele>475.03</ele>
        <time>2013-11-06T15:22:42Z</time>
      </trkpt>
      <trkpt lat="43.02925" lon="-0.09731">
        <ele>478.39</ele>
        <time>2013-11-06T15:22:53Z</time>
      </trkpt>
      <trkpt lat="43.02928" lon="-0.09771">
        <ele>481.28</ele>
        <time>2013-11-06T15:23:06Z</time>
      </trkpt>
      <trkpt lat="43.02924" lon="-0.0981">
        <ele>484.16</ele>
        <time>2013-11-06T15:23:18Z</time>
      </trkpt>
      <trkpt lat="43.02928" lon="-0.09827">
        <ele>486.08</ele>
        <time>2013-11-06T15:23:24Z</time>
      </trkpt>
      <trkpt lat="43.0292" lon="-0.09863">
        <ele>488.97</ele>
        <time>2013-11-06T15:23:36Z</time>
      </trkpt>
      <trkpt lat="43.02901" lon="-0.09892">
        <ele>492.33</ele>
        <time>2013-11-06T15:23:48Z</time>
      </trkpt>
      <trkpt lat="43.02899" lon="-0.0993">
        <ele>495.7</ele>
        <time>2013-11-06T15:24:00Z</time>
      </trkpt>
      <trkpt lat="43.02916" lon="-0.09952">
        <ele>498.1</ele>
        <time>2013-11-06T15:24:11Z</time>
      </trkpt>
      <trkpt lat="43.02945" lon="-0.09973">
        <ele>501.95</ele>
        <time>2013-11-06T15:24:25Z</time>
      </trkpt>
      <trkpt lat="43.02966" lon="-0.10002">
        <ele>505.31</ele>
        <time>2013-11-06T15:24:38Z</time>
      </trkpt>
      <trkpt lat="43.0298" lon="-0.1004">
        <ele>508.67</ele>
        <time>2013-11-06T15:24:52Z</time>
      </trkpt>
      <trkpt lat="43.02972" lon="-0.10074">
        <ele>511.56</ele>
        <time>2013-11-06T15:25:03Z</time>
      </trkpt>
      <trkpt lat="43.0297" lon="-0.10114">
        <ele>514.44</ele>
        <time>2013-11-06T15:25:16Z</time>
      </trkpt>
      <trkpt lat="43.02981" lon="-0.10138">
        <ele>517.33</ele>
        <time>2013-11-06T15:25:26Z</time>
      </trkpt>
      <trkpt lat="43.02985" lon="-0.10172">
        <ele>519.73</ele>
        <time>2013-11-06T15:25:38Z</time>
      </trkpt>
      <trkpt lat="43.0298" lon="-0.1021">
        <ele>521.17</ele>
        <time>2013-11-06T15:25:50Z</time>
      </trkpt>
      <trkpt lat="43.02978" lon="-0.10247">
        <ele>522.61</ele>
        <time>2013-11-06T15:26:01Z</time>
      </trkpt>
      <trkpt lat="43.02975" lon="-0.10299">
        <ele>522.61</ele>
        <time>2013-11-06T15:26:14Z</time>
      </trkpt>
      <trkpt lat="43.02968" lon="-0.10325">
        <ele>522.13</ele>
        <time>2013-11-06T15:26:21Z</time>
      </trkpt>
      <trkpt lat="43.02943" lon="-0.10352">
        <ele>523.09</ele>
        <time>2013-11-06T15:26:32Z</time>
      </trkpt>
      <trkpt lat="43.02929" lon="-0.1039">
        <ele>524.06</ele>
        <time>2013-11-06T15:26:43Z</time>
      </trkpt>
      <trkpt lat="43.02922" lon="-0.10437">
        <ele>525.02</ele>
        <time>2013-11-06T15:26:55Z</time>
      </trkpt>
      <trkpt lat="43.02912" lon="-0.10477">
        <ele>527.9</ele>
        <time>2013-11-06T15:27:09Z</time>
      </trkpt>
      <trkpt lat="43.02897" lon="-0.10526">
        <ele>529.82</ele>
        <time>2013-11-06T15:27:26Z</time>
      </trkpt>
      <trkpt lat="43.02883" lon="-0.10575">
        <ele>532.23</ele>
        <time>2013-11-06T15:27:42Z</time>
      </trkpt>
      <trkpt lat="43.02881" lon="-0.10594">
        <ele>533.67</ele>
        <time>2013-11-06T15:27:48Z</time>
      </trkpt>
      <trkpt lat="43.02868" lon="-0.10642">
        <ele>536.07</ele>
        <time>2013-11-06T15:28:04Z</time>
      </trkpt>
      <trkpt lat="43.02845" lon="-0.10688">
        <ele>537.51</ele>
        <time>2013-11-06T15:28:21Z</time>
      </trkpt>
      <trkpt lat="43.02829" lon="-0.10718">
        <ele>539.44</ele>
        <time>2013-11-06T15:28:33Z</time>
      </trkpt>
      <trkpt lat="43.02832" lon="-0.10725">
        <ele>540.4</ele>
        <time>2013-11-06T15:28:38Z</time>
      </trkpt>
      <trkpt lat="43.02854" lon="-0.1074">
        <ele>542.8</ele>
        <time>2013-11-06T15:28:52Z</time>
      </trkpt>
      <trkpt lat="43.02867" lon="-0.10759">
        <ele>546.17</ele>
        <time>2013-11-06T15:29:04Z</time>
      </trkpt>
      <trkpt lat="43.02881" lon="-0.10779">
        <ele>549.05</ele>
        <time>2013-11-06T15:29:15Z</time>
      </trkpt>
      <trkpt lat="43.02887" lon="-0.10788">
        <ele>550.49</ele>
        <time>2013-11-06T15:29:20Z</time>
      </trkpt>
      <trkpt lat="43.02905" lon="-0.10807">
        <ele>553.38</ele>
        <time>2013-11-06T15:29:33Z</time>
      </trkpt>
      <trkpt lat="43.02915" lon="-0.10815">
        <ele>555.78</ele>
        <time>2013-11-06T15:29:40Z</time>
      </trkpt>
      <trkpt lat="43.02921" lon="-0.10825">
        <ele>557.22</ele>
        <time>2013-11-06T15:29:46Z</time>
      </trkpt>
      <trkpt lat="43.02926" lon="-0.1083">
        <ele>558.18</ele>
        <time>2013-11-06T15:29:49Z</time>
      </trkpt>
      <trkpt lat="43.02936" lon="-0.10838">
        <ele>559.62</ele>
        <time>2013-11-06T15:29:56Z</time>
      </trkpt>
      <trkpt lat="43.0294" lon="-0.10839">
        <ele>560.11</ele>
        <time>2013-11-06T15:29:59Z</time>
      </trkpt>
      <trkpt lat="43.02946" lon="-0.10835">
        <ele>561.55</ele>
        <time>2013-11-06T15:30:03Z</time>
      </trkpt>
      <trkpt lat="43.02953" lon="-0.10828">
        <ele>562.51</ele>
        <time>2013-11-06T15:30:09Z</time>
      </trkpt>
      <trkpt lat="43.02976" lon="-0.10783">
        <ele>562.51</ele>
        <time>2013-11-06T15:30:26Z</time>
      </trkpt>
      <trkpt lat="43.02992" lon="-0.10752">
        <ele>562.51</ele>
        <time>2013-11-06T15:30:37Z</time>
      </trkpt>
      <trkpt lat="43.02995" lon="-0.10751">
        <ele>562.99</ele>
        <time>2013-11-06T15:30:39Z</time>
      </trkpt>
      <trkpt lat="43.02996" lon="-0.10748">
        <ele>562.51</ele>
        <time>2013-11-06T15:30:55Z</time>
      </trkpt>
      <trkpt lat="43.02996" lon="-0.10748">
        <ele>562.99</ele>
        <time>2013-11-06T15:31:09Z</time>
      </trkpt>
      <trkpt lat="43.02997" lon="-0.1075">
        <ele>563.47</ele>
        <time>2013-11-06T15:31:11Z</time>
      </trkpt>
      <trkpt lat="43.03005" lon="-0.10761">
        <ele>564.91</ele>
        <time>2013-11-06T15:31:26Z</time>
      </trkpt>
      <trkpt lat="43.03004" lon="-0.10764">
        <ele>564.43</ele>
        <time>2013-11-06T15:31:50Z</time>
      </trkpt>
      <trkpt lat="43.03003" lon="-0.10765">
        <ele>565.39</ele>
        <time>2013-11-06T15:32:28Z</time>
      </trkpt>
      <trkpt lat="43.03003" lon="-0.10765">
        <ele>565.39</ele>
        <time>2013-11-06T15:32:52Z</time>
      </trkpt>
      <trkpt lat="43.02996" lon="-0.10757">
        <ele>563.95</ele>
        <time>2013-11-06T15:32:57Z</time>
      </trkpt>
      <trkpt lat="43.02995" lon="-0.10745">
        <ele>562.99</ele>
        <time>2013-11-06T15:33:02Z</time>
      </trkpt>
      <trkpt lat="43.03003" lon="-0.10729">
        <ele>564.43</ele>
        <time>2013-11-06T15:33:08Z</time>
      </trkpt>
      <trkpt lat="43.03033" lon="-0.10717">
        <ele>566.35</ele>
        <time>2013-11-06T15:33:21Z</time>
      </trkpt>
      <trkpt lat="43.03054" lon="-0.10703">
        <ele>569.72</ele>
        <time>2013-11-06T15:33:31Z</time>
      </trkpt>
      <trkpt lat="43.03057" lon="-0.10701">
        <ele>570.2</ele>
        <time>2013-11-06T15:33:33Z</time>
      </trkpt>
      <trkpt lat="43.03063" lon="-0.10705">
        <ele>571.64</ele>
        <time>2013-11-06T15:33:36Z</time>
      </trkpt>
      <trkpt lat="43.03065" lon="-0.10717">
        <ele>572.12</ele>
        <time>2013-11-06T15:33:41Z</time>
      </trkpt>
      <trkpt lat="43.03069" lon="-0.10727">
        <ele>573.56</ele>
        <time>2013-11-06T15:33:45Z</time>
      </trkpt>
      <trkpt lat="43.03084" lon="-0.1074">
        <ele>575.97</ele>
        <time>2013-11-06T15:33:55Z</time>
      </trkpt>
      <trkpt lat="43.03087" lon="-0.10747">
        <ele>577.41</ele>
        <time>2013-11-06T15:33:59Z</time>
      </trkpt>
      <trkpt lat="43.03084" lon="-0.10769">
        <ele>580.29</ele>
        <time>2013-11-06T15:34:09Z</time>
      </trkpt>
      <trkpt lat="43.0308" lon="-0.10794">
        <ele>583.18</ele>
        <time>2013-11-06T15:34:21Z</time>
      </trkpt>
      <trkpt lat="43.03079" lon="-0.10805">
        <ele>584.14</ele>
        <time>2013-11-06T15:34:25Z</time>
      </trkpt>
      <trkpt lat="43.0307" lon="-0.10846">
        <ele>586.06</ele>
        <time>2013-11-06T15:34:41Z</time>
      </trkpt>
      <trkpt lat="43.03066" lon="-0.10884">
        <ele>587.98</ele>
        <time>2013-11-06T15:34:55Z</time>
      </trkpt>
      <trkpt lat="43.03068" lon="-0.10918">
        <ele>590.87</ele>
        <time>2013-11-06T15:35:08Z</time>
      </trkpt>
      <trkpt lat="43.03073" lon="-0.10942">
        <ele>593.27</ele>
        <time>2013-11-06T15:35:18Z</time>
      </trkpt>
      <trkpt lat="43.03075" lon="-0.10975">
        <ele>596.15</ele>
        <time>2013-11-06T15:35:32Z</time>
      </trkpt>
      <trkpt lat="43.03075" lon="-0.11">
        <ele>599.04</ele>
        <time>2013-11-06T15:35:43Z</time>
      </trkpt>
      <trkpt lat="43.03075" lon="-0.1101">
        <ele>600</ele>
        <time>2013-11-06T15:35:47Z</time>
      </trkpt>
      <trkpt lat="43.03078" lon="-0.11019">
        <ele>601.92</ele>
        <time>2013-11-06T15:35:52Z</time>
      </trkpt>
      <trkpt lat="43.03077" lon="-0.1103">
        <ele>602.88</ele>
        <time>2013-11-06T15:35:57Z</time>
      </trkpt>
      <trkpt lat="43.03075" lon="-0.11068">
        <ele>605.29</ele>
        <time>2013-11-06T15:36:11Z</time>
      </trkpt>
      <trkpt lat="43.03075" lon="-0.11101">
        <ele>607.21</ele>
        <time>2013-11-06T15:36:23Z</time>
      </trkpt>
      <trkpt lat="43.03079" lon="-0.11121">
        <ele>608.65</ele>
        <time>2013-11-06T15:36:31Z</time>
      </trkpt>
      <trkpt lat="43.03082" lon="-0.11131">
        <ele>609.61</ele>
        <time>2013-11-06T15:36:36Z</time>
      </trkpt>
      <trkpt lat="43.0309" lon="-0.11156">
        <ele>611.06</ele>
        <time>2013-11-06T15:36:48Z</time>
      </trkpt>
      <trkpt lat="43.03092" lon="-0.1116">
        <ele>611.54</ele>
        <time>2013-11-06T15:36:50Z</time>
      </trkpt>
      <trkpt lat="43.03098" lon="-0.11175">
        <ele>612.98</ele>
        <time>2013-11-06T15:36:59Z</time>
      </trkpt>
      <trkpt lat="43.03103" lon="-0.11183">
        <ele>613.94</ele>
        <time>2013-11-06T15:37:03Z</time>
      </trkpt>
      <trkpt lat="43.0311" lon="-0.11204">
        <ele>615.38</ele>
        <time>2013-11-06T15:37:12Z</time>
      </trkpt>
      <trkpt lat="43.03102" lon="-0.11227">
        <ele>617.78</ele>
        <time>2013-11-06T15:37:24Z</time>
      </trkpt>
      <trkpt lat="43.03095" lon="-0.11243">
        <ele>620.19</ele>
        <time>2013-11-06T15:37:34Z</time>
      </trkpt>
      <trkpt lat="43.03086" lon="-0.11262">
        <ele>620.19</ele>
        <time>2013-11-06T15:37:47Z</time>
      </trkpt>
      <trkpt lat="43.03081" lon="-0.11278">
        <ele>619.71</ele>
        <time>2013-11-06T15:37:52Z</time>
      </trkpt>
      <trkpt lat="43.03079" lon="-0.1129">
        <ele>619.23</ele>
        <time>2013-11-06T15:37:56Z</time>
      </trkpt>
      <trkpt lat="43.03078" lon="-0.11298">
        <ele>619.23</ele>
        <time>2013-11-06T15:38:00Z</time>
      </trkpt>
      <trkpt lat="43.03075" lon="-0.11311">
        <ele>618.75</ele>
        <time>2013-11-06T15:38:05Z</time>
      </trkpt>
      <trkpt lat="43.03074" lon="-0.11317">
        <ele>618.75</ele>
        <time>2013-11-06T15:38:07Z</time>
      </trkpt>
      <trkpt lat="43.03068" lon="-0.11343">
        <ele>619.71</ele>
        <time>2013-11-06T15:38:17Z</time>
      </trkpt>
      <trkpt lat="43.03065" lon="-0.11352">
        <ele>619.71</ele>
        <time>2013-11-06T15:38:30Z</time>
      </trkpt>
      <trkpt lat="43.03065" lon="-0.11353">
        <ele>619.71</ele>
        <time>2013-11-06T15:38:51Z</time>
      </trkpt>
      <trkpt lat="43.03064" lon="-0.11356">
        <ele>620.19</ele>
        <time>2013-11-06T15:39:21Z</time>
      </trkpt>
      <trkpt lat="43.03063" lon="-0.11357">
        <ele>619.71</ele>
        <time>2013-11-06T15:39:42Z</time>
      </trkpt>
      <trkpt lat="43.03063" lon="-0.11357">
        <ele>619.71</ele>
        <time>2013-11-06T15:40:10Z</time>
      </trkpt>
      <trkpt lat="43.03063" lon="-0.11356">
        <ele>620.67</ele>
        <time>2013-11-06T15:40:41Z</time>
      </trkpt>
      <trkpt lat="43.03062" lon="-0.11356">
        <ele>620.67</ele>
        <time>2013-11-06T15:41:14Z</time>
      </trkpt>
      <trkpt lat="43.03062" lon="-0.11356">
        <ele>620.19</ele>
        <time>2013-11-06T15:41:46Z</time>
      </trkpt>
      <trkpt lat="43.03062" lon="-0.11355">
        <ele>620.19</ele>
        <time>2013-11-06T15:42:16Z</time>
      </trkpt>
      <trkpt lat="43.03061" lon="-0.11353">
        <ele>620.67</ele>
        <time>2013-11-06T15:42:50Z</time>
      </trkpt>
      <trkpt lat="43.0306" lon="-0.11353">
        <ele>621.15</ele>
        <time>2013-11-06T15:43:22Z</time>
      </trkpt>
      <trkpt lat="43.03061" lon="-0.11354">
        <ele>621.15</ele>
        <time>2013-11-06T15:44:00Z</time>
      </trkpt>
      <trkpt lat="43.03061" lon="-0.11355">
        <ele>622.11</ele>
        <time>2013-11-06T15:44:02Z</time>
      </trkpt>
      <trkpt lat="43.0306" lon="-0.11363">
        <ele>622.11</ele>
        <time>2013-11-06T15:44:06Z</time>
      </trkpt>
      <trkpt lat="43.03054" lon="-0.11393">
        <ele>621.63</ele>
        <time>2013-11-06T15:44:16Z</time>
      </trkpt>
      <trkpt lat="43.03045" lon="-0.11434">
        <ele>622.11</ele>
        <time>2013-11-06T15:44:28Z</time>
      </trkpt>
      <trkpt lat="43.03035" lon="-0.11484">
        <ele>621.15</ele>
        <time>2013-11-06T15:44:40Z</time>
      </trkpt>
      <trkpt lat="43.03025" lon="-0.11525">
        <ele>620.19</ele>
        <time>2013-11-06T15:44:50Z</time>
      </trkpt>
      <trkpt lat="43.03015" lon="-0.11565">
        <ele>619.71</ele>
        <time>2013-11-06T15:44:59Z</time>
      </trkpt>
      <trkpt lat="43.02997" lon="-0.11619">
        <ele>618.75</ele>
        <time>2013-11-06T15:45:11Z</time>
      </trkpt>
      <trkpt lat="43.0299" lon="-0.11671">
        <ele>618.26</ele>
        <time>2013-11-06T15:45:21Z</time>
      </trkpt>
      <trkpt lat="43.02975" lon="-0.1172">
        <ele>617.3</ele>
        <time>2013-11-06T15:45:31Z</time>
      </trkpt>
      <trkpt lat="43.02965" lon="-0.11746">
        <ele>617.3</ele>
        <time>2013-11-06T15:45:37Z</time>
      </trkpt>
      <trkpt lat="43.02963" lon="-0.11781">
        <ele>617.78</ele>
        <time>2013-11-06T15:45:45Z</time>
      </trkpt>
      <trkpt lat="43.02966" lon="-0.11791">
        <ele>618.75</ele>
        <time>2013-11-06T15:45:49Z</time>
      </trkpt>
      <trkpt lat="43.02964" lon="-0.11813">
        <ele>621.15</ele>
        <time>2013-11-06T15:45:56Z</time>
      </trkpt>
      <trkpt lat="43.02947" lon="-0.11851">
        <ele>624.51</ele>
        <time>2013-11-06T15:46:08Z</time>
      </trkpt>
      <trkpt lat="43.02935" lon="-0.11885">
        <ele>625.47</ele>
        <time>2013-11-06T15:46:19Z</time>
      </trkpt>
      <trkpt lat="43.02921" lon="-0.11922">
        <ele>622.11</ele>
        <time>2013-11-06T15:46:30Z</time>
      </trkpt>
      <trkpt lat="43.02919" lon="-0.11927">
        <ele>621.63</ele>
        <time>2013-11-06T15:46:31Z</time>
      </trkpt>
      <trkpt lat="43.02917" lon="-0.11933">
        <ele>620.67</ele>
        <time>2013-11-06T15:46:32Z</time>
      </trkpt>
      <trkpt lat="43.02908" lon="-0.11956">
        <ele>618.26</ele>
        <time>2013-11-06T15:46:36Z</time>
      </trkpt>
      <trkpt lat="43.02897" lon="-0.11963">
        <ele>616.34</ele>
        <time>2013-11-06T15:46:43Z</time>
      </trkpt>
      <trkpt lat="43.02895" lon="-0.11964">
        <ele>616.34</ele>
        <time>2013-11-06T15:46:59Z</time>
      </trkpt>
      <trkpt lat="43.02895" lon="-0.11964">
        <ele>616.34</ele>
        <time>2013-11-06T15:47:31Z</time>
      </trkpt>
      <trkpt lat="43.02894" lon="-0.11963">
        <ele>616.34</ele>
        <time>2013-11-06T15:47:40Z</time>
      </trkpt>
      <trkpt lat="43.02865" lon="-0.11959">
        <ele>615.38</ele>
        <time>2013-11-06T15:47:51Z</time>
      </trkpt>
      <trkpt lat="43.02822" lon="-0.11938">
        <ele>616.34</ele>
        <time>2013-11-06T15:48:04Z</time>
      </trkpt>
      <trkpt lat="43.02786" lon="-0.11925">
        <ele>617.3</ele>
        <time>2013-11-06T15:48:14Z</time>
      </trkpt>
      <trkpt lat="43.0277" lon="-0.11921">
        <ele>615.86</ele>
        <time>2013-11-06T15:48:17Z</time>
      </trkpt>
      <trkpt lat="43.02742" lon="-0.11912">
        <ele>613.94</ele>
        <time>2013-11-06T15:48:21Z</time>
      </trkpt>
      <trkpt lat="43.02713" lon="-0.11897">
        <ele>612.02</ele>
        <time>2013-11-06T15:48:25Z</time>
      </trkpt>
      <trkpt lat="43.02697" lon="-0.1189">
        <ele>611.54</ele>
        <time>2013-11-06T15:48:27Z</time>
      </trkpt>
      <trkpt lat="43.02676" lon="-0.11876">
        <ele>610.57</ele>
        <time>2013-11-06T15:48:30Z</time>
      </trkpt>
      <trkpt lat="43.02662" lon="-0.11871">
        <ele>609.61</ele>
        <time>2013-11-06T15:48:32Z</time>
      </trkpt>
      <trkpt lat="43.02643" lon="-0.11884">
        <ele>608.17</ele>
        <time>2013-11-06T15:48:35Z</time>
      </trkpt>
      <trkpt lat="43.02607" lon="-0.11877">
        <ele>605.29</ele>
        <time>2013-11-06T15:48:42Z</time>
      </trkpt>
      <trkpt lat="43.02599" lon="-0.11869">
        <ele>604.81</ele>
        <time>2013-11-06T15:48:44Z</time>
      </trkpt>
      <trkpt lat="43.0259" lon="-0.11862">
        <ele>603.36</ele>
        <time>2013-11-06T15:48:46Z</time>
      </trkpt>
      <trkpt lat="43.02566" lon="-0.11842">
        <ele>600</ele>
        <time>2013-11-06T15:48:52Z</time>
      </trkpt>
      <trkpt lat="43.02554" lon="-0.11831">
        <ele>596.64</ele>
        <time>2013-11-06T15:48:56Z</time>
      </trkpt>
      <trkpt lat="43.02537" lon="-0.11811">
        <ele>592.31</ele>
        <time>2013-11-06T15:49:02Z</time>
      </trkpt>
      <trkpt lat="43.02529" lon="-0.11802">
        <ele>589.43</ele>
        <time>2013-11-06T15:49:05Z</time>
      </trkpt>
      <trkpt lat="43.02525" lon="-0.11796">
        <ele>587.5</ele>
        <time>2013-11-06T15:49:08Z</time>
      </trkpt>
      <trkpt lat="43.0252" lon="-0.11777">
        <ele>583.66</ele>
        <time>2013-11-06T15:49:14Z</time>
      </trkpt>
      <trkpt lat="43.02521" lon="-0.11767">
        <ele>582.22</ele>
        <time>2013-11-06T15:49:18Z</time>
      </trkpt>
      <trkpt lat="43.02521" lon="-0.11761">
        <ele>581.73</ele>
        <time>2013-11-06T15:49:21Z</time>
      </trkpt>
      <trkpt lat="43.02523" lon="-0.11751">
        <ele>579.81</ele>
        <time>2013-11-06T15:49:26Z</time>
      </trkpt>
      <trkpt lat="43.02527" lon="-0.11742">
        <ele>576.93</ele>
        <time>2013-11-06T15:49:30Z</time>
      </trkpt>
      <trkpt lat="43.0253" lon="-0.1173">
        <ele>575.01</ele>
        <time>2013-11-06T15:49:41Z</time>
      </trkpt>
      <trkpt lat="43.02533" lon="-0.1172">
        <ele>572.6</ele>
        <time>2013-11-06T15:49:45Z</time>
      </trkpt>
      <trkpt lat="43.02535" lon="-0.11711">
        <ele>570.68</ele>
        <time>2013-11-06T15:49:48Z</time>
      </trkpt>
      <trkpt lat="43.02537" lon="-0.11703">
        <ele>570.2</ele>
        <time>2013-11-06T15:49:50Z</time>
      </trkpt>
      <trkpt lat="43.02538" lon="-0.117">
        <ele>569.72</ele>
        <time>2013-11-06T15:49:51Z</time>
      </trkpt>
      <trkpt lat="43.02544" lon="-0.11692">
        <ele>567.32</ele>
        <time>2013-11-06T15:49:55Z</time>
      </trkpt>
      <trkpt lat="43.02546" lon="-0.11687">
        <ele>566.35</ele>
        <time>2013-11-06T15:49:57Z</time>
      </trkpt>
      <trkpt lat="43.02551" lon="-0.1168">
        <ele>564.91</ele>
        <time>2013-11-06T15:49:59Z</time>
      </trkpt>
      <trkpt lat="43.02557" lon="-0.11666">
        <ele>561.07</ele>
        <time>2013-11-06T15:50:04Z</time>
      </trkpt>
      <trkpt lat="43.0256" lon="-0.11653">
        <ele>559.14</ele>
        <time>2013-11-06T15:50:07Z</time>
      </trkpt>
      <trkpt lat="43.02567" lon="-0.11641">
        <ele>557.22</ele>
        <time>2013-11-06T15:50:11Z</time>
      </trkpt>
      <trkpt lat="43.0257" lon="-0.11639">
        <ele>556.26</ele>
        <time>2013-11-06T15:50:15Z</time>
      </trkpt>
      <trkpt lat="43.02575" lon="-0.11631">
        <ele>554.34</ele>
        <time>2013-11-06T15:50:19Z</time>
      </trkpt>
      <trkpt lat="43.02578" lon="-0.11627">
        <ele>553.38</ele>
        <time>2013-11-06T15:50:21Z</time>
      </trkpt>
      <trkpt lat="43.02589" lon="-0.11614">
        <ele>550.49</ele>
        <time>2013-11-06T15:50:26Z</time>
      </trkpt>
      <trkpt lat="43.02591" lon="-0.1161">
        <ele>550.49</ele>
        <time>2013-11-06T15:50:27Z</time>
      </trkpt>
      <trkpt lat="43.02595" lon="-0.11591">
        <ele>547.61</ele>
        <time>2013-11-06T15:50:32Z</time>
      </trkpt>
      <trkpt lat="43.02592" lon="-0.11581">
        <ele>546.17</ele>
        <time>2013-11-06T15:50:35Z</time>
      </trkpt>
      <trkpt lat="43.02591" lon="-0.11576">
        <ele>545.2</ele>
        <time>2013-11-06T15:50:37Z</time>
      </trkpt>
      <trkpt lat="43.02576" lon="-0.11558">
        <ele>540.88</ele>
        <time>2013-11-06T15:50:47Z</time>
      </trkpt>
      <trkpt lat="43.02563" lon="-0.11524">
        <ele>537.51</ele>
        <time>2013-11-06T15:50:56Z</time>
      </trkpt>
      <trkpt lat="43.02561" lon="-0.11514">
        <ele>536.55</ele>
        <time>2013-11-06T15:50:58Z</time>
      </trkpt>
      <trkpt lat="43.02554" lon="-0.11487">
        <ele>533.67</ele>
        <time>2013-11-06T15:51:03Z</time>
      </trkpt>
      <trkpt lat="43.02547" lon="-0.11462">
        <ele>531.27</ele>
        <time>2013-11-06T15:51:07Z</time>
      </trkpt>
      <trkpt lat="43.02541" lon="-0.11433">
        <ele>528.86</ele>
        <time>2013-11-06T15:51:12Z</time>
      </trkpt>
      <trkpt lat="43.02532" lon="-0.11396">
        <ele>525.5</ele>
        <time>2013-11-06T15:51:19Z</time>
      </trkpt>
      <trkpt lat="43.02532" lon="-0.11387">
        <ele>525.02</ele>
        <time>2013-11-06T15:51:21Z</time>
      </trkpt>
      <trkpt lat="43.02541" lon="-0.11351">
        <ele>521.65</ele>
        <time>2013-11-06T15:51:28Z</time>
      </trkpt>
      <trkpt lat="43.02543" lon="-0.11303">
        <ele>517.81</ele>
        <time>2013-11-06T15:51:37Z</time>
      </trkpt>
      <trkpt lat="43.02538" lon="-0.11287">
        <ele>515.88</ele>
        <time>2013-11-06T15:51:41Z</time>
      </trkpt>
      <trkpt lat="43.02531" lon="-0.11263">
        <ele>514.92</ele>
        <time>2013-11-06T15:51:46Z</time>
      </trkpt>
      <trkpt lat="43.02517" lon="-0.11249">
        <ele>512.04</ele>
        <time>2013-11-06T15:51:53Z</time>
      </trkpt>
      <trkpt lat="43.02504" lon="-0.11209">
        <ele>508.67</ele>
        <time>2013-11-06T15:52:02Z</time>
      </trkpt>
      <trkpt lat="43.02499" lon="-0.1119">
        <ele>507.23</ele>
        <time>2013-11-06T15:52:07Z</time>
      </trkpt>
      <trkpt lat="43.02491" lon="-0.11166">
        <ele>505.79</ele>
        <time>2013-11-06T15:52:11Z</time>
      </trkpt>
      <trkpt lat="43.02482" lon="-0.11118">
        <ele>503.39</ele>
        <time>2013-11-06T15:52:20Z</time>
      </trkpt>
      <trkpt lat="43.02484" lon="-0.11076">
        <ele>502.91</ele>
        <time>2013-11-06T15:52:28Z</time>
      </trkpt>
      <trkpt lat="43.02487" lon="-0.11044">
        <ele>501.46</ele>
        <time>2013-11-06T15:52:33Z</time>
      </trkpt>
      <trkpt lat="43.02497" lon="-0.11019">
        <ele>498.58</ele>
        <time>2013-11-06T15:52:37Z</time>
      </trkpt>
      <trkpt lat="43.02488" lon="-0.10995">
        <ele>496.66</ele>
        <time>2013-11-06T15:52:42Z</time>
      </trkpt>
      <trkpt lat="43.02482" lon="-0.10994">
        <ele>496.18</ele>
        <time>2013-11-06T15:52:43Z</time>
      </trkpt>
      <trkpt lat="43.02453" lon="-0.11023">
        <ele>492.33</ele>
        <time>2013-11-06T15:52:49Z</time>
      </trkpt>
      <trkpt lat="43.02444" lon="-0.11047">
        <ele>490.89</ele>
        <time>2013-11-06T15:52:52Z</time>
      </trkpt>
      <trkpt lat="43.02441" lon="-0.11054">
        <ele>490.41</ele>
        <time>2013-11-06T15:52:53Z</time>
      </trkpt>
      <trkpt lat="43.02411" lon="-0.11056">
        <ele>487.53</ele>
        <time>2013-11-06T15:52:58Z</time>
      </trkpt>
      <trkpt lat="43.02369" lon="-0.11015">
        <ele>484.16</ele>
        <time>2013-11-06T15:53:05Z</time>
      </trkpt>
      <trkpt lat="43.02359" lon="-0.11004">
        <ele>484.16</ele>
        <time>2013-11-06T15:53:07Z</time>
      </trkpt>
      <trkpt lat="43.02334" lon="-0.10974">
        <ele>484.64</ele>
        <time>2013-11-06T15:53:13Z</time>
      </trkpt>
      <trkpt lat="43.02325" lon="-0.1095">
        <ele>484.64</ele>
        <time>2013-11-06T15:53:17Z</time>
      </trkpt>
      <trkpt lat="43.02326" lon="-0.10891">
        <ele>487.53</ele>
        <time>2013-11-06T15:53:30Z</time>
      </trkpt>
      <trkpt lat="43.0233" lon="-0.10831">
        <ele>489.93</ele>
        <time>2013-11-06T15:53:43Z</time>
      </trkpt>
      <trkpt lat="43.02331" lon="-0.10812">
        <ele>490.89</ele>
        <time>2013-11-06T15:53:48Z</time>
      </trkpt>
      <trkpt lat="43.02321" lon="-0.10769">
        <ele>493.77</ele>
        <time>2013-11-06T15:53:59Z</time>
      </trkpt>
      <trkpt lat="43.02304" lon="-0.10738">
        <ele>497.14</ele>
        <time>2013-11-06T15:54:09Z</time>
      </trkpt>
      <trkpt lat="43.02279" lon="-0.10699">
        <ele>496.66</ele>
        <time>2013-11-06T15:54:21Z</time>
      </trkpt>
      <trkpt lat="43.02264" lon="-0.10683">
        <ele>497.14</ele>
        <time>2013-11-06T15:54:26Z</time>
      </trkpt>
      <trkpt lat="43.02224" lon="-0.10634">
        <ele>497.14</ele>
        <time>2013-11-06T15:54:41Z</time>
      </trkpt>
      <trkpt lat="43.02212" lon="-0.1062">
        <ele>497.14</ele>
        <time>2013-11-06T15:54:45Z</time>
      </trkpt>
      <trkpt lat="43.02198" lon="-0.10608">
        <ele>497.14</ele>
        <time>2013-11-06T15:54:49Z</time>
      </trkpt>
      <trkpt lat="43.02149" lon="-0.10551">
        <ele>497.62</ele>
        <time>2013-11-06T15:55:06Z</time>
      </trkpt>
      <trkpt lat="43.02108" lon="-0.10506">
        <ele>499.06</ele>
        <time>2013-11-06T15:55:22Z</time>
      </trkpt>
      <trkpt lat="43.02075" lon="-0.10466">
        <ele>500.98</ele>
        <time>2013-11-06T15:55:36Z</time>
      </trkpt>
      <trkpt lat="43.02067" lon="-0.10457">
        <ele>501.46</ele>
        <time>2013-11-06T15:55:41Z</time>
      </trkpt>
      <trkpt lat="43.02044" lon="-0.10434">
        <ele>503.39</ele>
        <time>2013-11-06T15:55:52Z</time>
      </trkpt>
      <trkpt lat="43.0203" lon="-0.10418">
        <ele>504.83</ele>
        <time>2013-11-06T15:56:02Z</time>
      </trkpt>
      <trkpt lat="43.02021" lon="-0.10407">
        <ele>506.75</ele>
        <time>2013-11-06T15:56:09Z</time>
      </trkpt>
      <trkpt lat="43.02013" lon="-0.10386">
        <ele>509.16</ele>
        <time>2013-11-06T15:56:21Z</time>
      </trkpt>
      <trkpt lat="43.02007" lon="-0.10377">
        <ele>510.12</ele>
        <time>2013-11-06T15:56:26Z</time>
      </trkpt>
      <trkpt lat="43.01999" lon="-0.10368">
        <ele>512.04</ele>
        <time>2013-11-06T15:56:34Z</time>
      </trkpt>
      <trkpt lat="43.01992" lon="-0.10352">
        <ele>513</ele>
        <time>2013-11-06T15:56:42Z</time>
      </trkpt>
      <trkpt lat="43.01974" lon="-0.10328">
        <ele>513.96</ele>
        <time>2013-11-06T15:56:53Z</time>
      </trkpt>
      <trkpt lat="43.01966" lon="-0.10317">
        <ele>514.44</ele>
        <time>2013-11-06T15:56:58Z</time>
      </trkpt>
      <trkpt lat="43.01963" lon="-0.10307">
        <ele>515.88</ele>
        <time>2013-11-06T15:57:02Z</time>
      </trkpt>
      <trkpt lat="43.01956" lon="-0.103">
        <ele>515.4</ele>
        <time>2013-11-06T15:57:06Z</time>
      </trkpt>
      <trkpt lat="43.01951" lon="-0.10292">
        <ele>515.4</ele>
        <time>2013-11-06T15:57:10Z</time>
      </trkpt>
      <trkpt lat="43.01944" lon="-0.10278">
        <ele>514.44</ele>
        <time>2013-11-06T15:57:16Z</time>
      </trkpt>
      <trkpt lat="43.01936" lon="-0.1027">
        <ele>513.96</ele>
        <time>2013-11-06T15:57:21Z</time>
      </trkpt>
      <trkpt lat="43.0192" lon="-0.10256">
        <ele>513.96</ele>
        <time>2013-11-06T15:57:33Z</time>
      </trkpt>
      <trkpt lat="43.01912" lon="-0.10248">
        <ele>514.44</ele>
        <time>2013-11-06T15:57:39Z</time>
      </trkpt>
      <trkpt lat="43.01907" lon="-0.10247">
        <ele>513.96</ele>
        <time>2013-11-06T15:57:42Z</time>
      </trkpt>
      <trkpt lat="43.0189" lon="-0.10228">
        <ele>514.92</ele>
        <time>2013-11-06T15:57:53Z</time>
      </trkpt>
      <trkpt lat="43.01869" lon="-0.10209">
        <ele>517.33</ele>
        <time>2013-11-06T15:58:05Z</time>
      </trkpt>
      <trkpt lat="43.01857" lon="-0.10176">
        <ele>517.33</ele>
        <time>2013-11-06T15:58:15Z</time>
      </trkpt>
      <trkpt lat="43.01852" lon="-0.10157">
        <ele>516.37</ele>
        <time>2013-11-06T15:58:19Z</time>
      </trkpt>
      <trkpt lat="43.0184" lon="-0.10119">
        <ele>515.4</ele>
        <time>2013-11-06T15:58:28Z</time>
      </trkpt>
      <trkpt lat="43.01825" lon="-0.10097">
        <ele>514.44</ele>
        <time>2013-11-06T15:58:33Z</time>
      </trkpt>
      <trkpt lat="43.01815" lon="-0.10088">
        <ele>513.96</ele>
        <time>2013-11-06T15:58:36Z</time>
      </trkpt>
      <trkpt lat="43.0177" lon="-0.10071">
        <ele>513.48</ele>
        <time>2013-11-06T15:58:49Z</time>
      </trkpt>
      <trkpt lat="43.0176" lon="-0.1007">
        <ele>512.52</ele>
        <time>2013-11-06T15:58:51Z</time>
      </trkpt>
      <trkpt lat="43.01743" lon="-0.10071">
        <ele>510.6</ele>
        <time>2013-11-06T15:58:54Z</time>
      </trkpt>
      <trkpt lat="43.01717" lon="-0.10078">
        <ele>511.08</ele>
        <time>2013-11-06T15:58:59Z</time>
      </trkpt>
      <trkpt lat="43.01709" lon="-0.10074">
        <ele>511.56</ele>
        <time>2013-11-06T15:59:02Z</time>
      </trkpt>
      <trkpt lat="43.01701" lon="-0.10056">
        <ele>514.92</ele>
        <time>2013-11-06T15:59:13Z</time>
      </trkpt>
      <trkpt lat="43.017" lon="-0.10042">
        <ele>517.33</ele>
        <time>2013-11-06T15:59:21Z</time>
      </trkpt>
      <trkpt lat="43.01697" lon="-0.10034">
        <ele>518.29</ele>
        <time>2013-11-06T15:59:25Z</time>
      </trkpt>
      <trkpt lat="43.01685" lon="-0.10001">
        <ele>517.33</ele>
        <time>2013-11-06T15:59:34Z</time>
      </trkpt>
      <trkpt lat="43.01667" lon="-0.09987">
        <ele>515.88</ele>
        <time>2013-11-06T15:59:40Z</time>
      </trkpt>
      <trkpt lat="43.01618" lon="-0.09995">
        <ele>511.56</ele>
        <time>2013-11-06T15:59:50Z</time>
      </trkpt>
      <trkpt lat="43.01585" lon="-0.10005">
        <ele>508.67</ele>
        <time>2013-11-06T15:59:57Z</time>
      </trkpt>
      <trkpt lat="43.01566" lon="-0.10008">
        <ele>506.27</ele>
        <time>2013-11-06T16:00:02Z</time>
      </trkpt>
      <trkpt lat="43.01529" lon="-0.10024">
        <ele>502.91</ele>
        <time>2013-11-06T16:00:10Z</time>
      </trkpt>
      <trkpt lat="43.01517" lon="-0.10032">
        <ele>501.46</ele>
        <time>2013-11-06T16:00:13Z</time>
      </trkpt>
      <trkpt lat="43.01491" lon="-0.10055">
        <ele>498.58</ele>
        <time>2013-11-06T16:00:19Z</time>
      </trkpt>
      <trkpt lat="43.01481" lon="-0.10064">
        <ele>498.1</ele>
        <time>2013-11-06T16:00:21Z</time>
      </trkpt>
      <trkpt lat="43.01467" lon="-0.10075">
        <ele>496.18</ele>
        <time>2013-11-06T16:00:24Z</time>
      </trkpt>
      <trkpt lat="43.0145" lon="-0.10098">
        <ele>494.26</ele>
        <time>2013-11-06T16:00:28Z</time>
      </trkpt>
      <trkpt lat="43.01436" lon="-0.10114">
        <ele>493.77</ele>
        <time>2013-11-06T16:00:31Z</time>
      </trkpt>
      <trkpt lat="43.0142" lon="-0.10128">
        <ele>492.81</ele>
        <time>2013-11-06T16:00:34Z</time>
      </trkpt>
      <trkpt lat="43.01395" lon="-0.10139">
        <ele>493.77</ele>
        <time>2013-11-06T16:00:39Z</time>
      </trkpt>
      <trkpt lat="43.01377" lon="-0.10137">
        <ele>495.7</ele>
        <time>2013-11-06T16:00:45Z</time>
      </trkpt>
      <trkpt lat="43.01372" lon="-0.10136">
        <ele>495.7</ele>
        <time>2013-11-06T16:00:47Z</time>
      </trkpt>
      <trkpt lat="43.01363" lon="-0.10135">
        <ele>495.22</ele>
        <time>2013-11-06T16:00:49Z</time>
      </trkpt>
      <trkpt lat="43.01345" lon="-0.10133">
        <ele>493.29</ele>
        <time>2013-11-06T16:00:52Z</time>
      </trkpt>
      <trkpt lat="43.01315" lon="-0.10125">
        <ele>492.81</ele>
        <time>2013-11-06T16:00:57Z</time>
      </trkpt>
      <trkpt lat="43.013" lon="-0.10119">
        <ele>492.33</ele>
        <time>2013-11-06T16:01:00Z</time>
      </trkpt>
      <trkpt lat="43.01291" lon="-0.10116">
        <ele>490.89</ele>
        <time>2013-11-06T16:01:02Z</time>
      </trkpt>
      <trkpt lat="43.01275" lon="-0.10119">
        <ele>487.53</ele>
        <time>2013-11-06T16:01:05Z</time>
      </trkpt>
      <trkpt lat="43.01265" lon="-0.1012">
        <ele>487.05</ele>
        <time>2013-11-06T16:01:07Z</time>
      </trkpt>
      <trkpt lat="43.01259" lon="-0.10122">
        <ele>486.56</ele>
        <time>2013-11-06T16:01:08Z</time>
      </trkpt>
      <trkpt lat="43.01237" lon="-0.10135">
        <ele>482.72</ele>
        <time>2013-11-06T16:01:13Z</time>
      </trkpt>
      <trkpt lat="43.01215" lon="-0.10147">
        <ele>478.87</ele>
        <time>2013-11-06T16:01:17Z</time>
      </trkpt>
      <trkpt lat="43.01195" lon="-0.1016">
        <ele>475.03</ele>
        <time>2013-11-06T16:01:20Z</time>
      </trkpt>
      <trkpt lat="43.01175" lon="-0.1016">
        <ele>472.14</ele>
        <time>2013-11-06T16:01:24Z</time>
      </trkpt>
      <trkpt lat="43.01149" lon="-0.10151">
        <ele>469.26</ele>
        <time>2013-11-06T16:01:33Z</time>
      </trkpt>
      <trkpt lat="43.01139" lon="-0.10149">
        <ele>467.82</ele>
        <time>2013-11-06T16:01:35Z</time>
      </trkpt>
      <trkpt lat="43.01126" lon="-0.10148">
        <ele>466.38</ele>
        <time>2013-11-06T16:01:37Z</time>
      </trkpt>
      <trkpt lat="43.01091" lon="-0.1013">
        <ele>464.93</ele>
        <time>2013-11-06T16:01:43Z</time>
      </trkpt>
      <trkpt lat="43.0107" lon="-0.10125">
        <ele>464.45</ele>
        <time>2013-11-06T16:01:47Z</time>
      </trkpt>
      <trkpt lat="43.01054" lon="-0.10128">
        <ele>465.42</ele>
        <time>2013-11-06T16:01:51Z</time>
      </trkpt>
      <trkpt lat="43.01017" lon="-0.10129">
        <ele>464.93</ele>
        <time>2013-11-06T16:02:02Z</time>
      </trkpt>
      <trkpt lat="43.00983" lon="-0.1012">
        <ele>465.9</ele>
        <time>2013-11-06T16:02:12Z</time>
      </trkpt>
      <trkpt lat="43.00946" lon="-0.10121">
        <ele>465.42</ele>
        <time>2013-11-06T16:02:23Z</time>
      </trkpt>
      <trkpt lat="43.00933" lon="-0.10106">
        <ele>461.09</ele>
        <time>2013-11-06T16:02:27Z</time>
      </trkpt>
      <trkpt lat="43.00924" lon="-0.10105">
        <ele>459.65</ele>
        <time>2013-11-06T16:02:30Z</time>
      </trkpt>
      <trkpt lat="43.00921" lon="-0.10107">
        <ele>460.13</ele>
        <time>2013-11-06T16:02:31Z</time>
      </trkpt>
      <trkpt lat="43.00905" lon="-0.10121">
        <ele>462.05</ele>
        <time>2013-11-06T16:02:39Z</time>
      </trkpt>
      <trkpt lat="43.00899" lon="-0.10132">
        <ele>463.01</ele>
        <time>2013-11-06T16:02:44Z</time>
      </trkpt>
      <trkpt lat="43.00885" lon="-0.10146">
        <ele>464.93</ele>
        <time>2013-11-06T16:02:52Z</time>
      </trkpt>
      <trkpt lat="43.00881" lon="-0.10151">
        <ele>465.9</ele>
        <time>2013-11-06T16:02:55Z</time>
      </trkpt>
      <trkpt lat="43.00876" lon="-0.1016">
        <ele>467.34</ele>
        <time>2013-11-06T16:03:00Z</time>
      </trkpt>
      <trkpt lat="43.0085" lon="-0.10176">
        <ele>468.3</ele>
        <time>2013-11-06T16:03:13Z</time>
      </trkpt>
      <trkpt lat="43.00848" lon="-0.10178">
        <ele>468.3</ele>
        <time>2013-11-06T16:03:14Z</time>
      </trkpt>
      <trkpt lat="43.00833" lon="-0.10185">
        <ele>470.22</ele>
        <time>2013-11-06T16:03:24Z</time>
      </trkpt>
      <trkpt lat="43.00821" lon="-0.10191">
        <ele>471.18</ele>
        <time>2013-11-06T16:03:36Z</time>
      </trkpt>
      <trkpt lat="43.00818" lon="-0.10193">
        <ele>471.18</ele>
        <time>2013-11-06T16:04:04Z</time>
      </trkpt>
      <trkpt lat="43.00803" lon="-0.10198">
        <ele>471.66</ele>
        <time>2013-11-06T16:04:15Z</time>
      </trkpt>
      <trkpt lat="43.00782" lon="-0.10212">
        <ele>473.11</ele>
        <time>2013-11-06T16:04:26Z</time>
      </trkpt>
      <trkpt lat="43.00766" lon="-0.10224">
        <ele>474.07</ele>
        <time>2013-11-06T16:04:33Z</time>
      </trkpt>
      <trkpt lat="43.00736" lon="-0.10251">
        <ele>476.47</ele>
        <time>2013-11-06T16:04:48Z</time>
      </trkpt>
      <trkpt lat="43.00707" lon="-0.10262">
        <ele>477.43</ele>
        <time>2013-11-06T16:04:59Z</time>
      </trkpt>
      <trkpt lat="43.00671" lon="-0.10262">
        <ele>477.91</ele>
        <time>2013-11-06T16:05:11Z</time>
      </trkpt>
      <trkpt lat="43.00648" lon="-0.10234">
        <ele>476.47</ele>
        <time>2013-11-06T16:05:20Z</time>
      </trkpt>
      <trkpt lat="43.00634" lon="-0.10207">
        <ele>472.63</ele>
        <time>2013-11-06T16:05:25Z</time>
      </trkpt>
      <trkpt lat="43.00614" lon="-0.10189">
        <ele>468.78</ele>
        <time>2013-11-06T16:05:29Z</time>
      </trkpt>
      <trkpt lat="43.00599" lon="-0.10182">
        <ele>466.86</ele>
        <time>2013-11-06T16:05:32Z</time>
      </trkpt>
      <trkpt lat="43.00588" lon="-0.10179">
        <ele>463.97</ele>
        <time>2013-11-06T16:05:36Z</time>
      </trkpt>
      <trkpt lat="43.00588" lon="-0.10181">
        <ele>463.97</ele>
        <time>2013-11-06T16:05:41Z</time>
      </trkpt>
      <trkpt lat="43.0057" lon="-0.10173">
        <ele>461.57</ele>
        <time>2013-11-06T16:05:49Z</time>
      </trkpt>
      <trkpt lat="43.00561" lon="-0.10172">
        <ele>460.61</ele>
        <time>2013-11-06T16:05:51Z</time>
      </trkpt>
      <trkpt lat="43.00557" lon="-0.10172">
        <ele>459.65</ele>
        <time>2013-11-06T16:05:52Z</time>
      </trkpt>
      <trkpt lat="43.00546" lon="-0.10162">
        <ele>457.72</ele>
        <time>2013-11-06T16:05:58Z</time>
      </trkpt>
      <trkpt lat="43.00558" lon="-0.1015">
        <ele>455.8</ele>
        <time>2013-11-06T16:06:05Z</time>
      </trkpt>
      <trkpt lat="43.00561" lon="-0.1015">
        <ele>455.8</ele>
        <time>2013-11-06T16:06:06Z</time>
      </trkpt>
      <trkpt lat="43.00564" lon="-0.1015">
        <ele>455.8</ele>
        <time>2013-11-06T16:06:07Z</time>
      </trkpt>
      <trkpt lat="43.00574" lon="-0.10142">
        <ele>454.84</ele>
        <time>2013-11-06T16:06:12Z</time>
      </trkpt>
      <trkpt lat="43.00576" lon="-0.10131">
        <ele>454.84</ele>
        <time>2013-11-06T16:06:14Z</time>
      </trkpt>
      <trkpt lat="43.0058" lon="-0.10095">
        <ele>454.36</ele>
        <time>2013-11-06T16:06:22Z</time>
      </trkpt>
      <trkpt lat="43.00583" lon="-0.1007">
        <ele>454.84</ele>
        <time>2013-11-06T16:06:28Z</time>
      </trkpt>
      <trkpt lat="43.00577" lon="-0.10064">
        <ele>454.84</ele>
        <time>2013-11-06T16:06:34Z</time>
      </trkpt>
      <trkpt lat="43.00578" lon="-0.10062">
        <ele>454.36</ele>
        <time>2013-11-06T16:06:52Z</time>
      </trkpt>
      <trkpt lat="43.00577" lon="-0.10062">
        <ele>455.32</ele>
        <time>2013-11-06T16:07:22Z</time>
      </trkpt>
      <trkpt lat="43.00576" lon="-0.10065">
        <ele>455.32</ele>
        <time>2013-11-06T16:07:49Z</time>
      </trkpt>
      <trkpt lat="43.00575" lon="-0.10063">
        <ele>454.84</ele>
        <time>2013-11-06T16:08:22Z</time>
      </trkpt>
      <trkpt lat="43.00575" lon="-0.10063">
        <ele>454.36</ele>
        <time>2013-11-06T16:08:50Z</time>
      </trkpt>
      <trkpt lat="43.00575" lon="-0.10064">
        <ele>455.32</ele>
        <time>2013-11-06T16:09:18Z</time>
      </trkpt>
      <trkpt lat="43.00575" lon="-0.10064">
        <ele>454.84</ele>
        <time>2013-11-06T16:09:46Z</time>
      </trkpt>
      <trkpt lat="43.00576" lon="-0.10064">
        <ele>454.84</ele>
        <time>2013-11-06T16:10:04Z</time>
      </trkpt>
      <trkpt lat="43.00577" lon="-0.10063">
        <ele>455.8</ele>
        <time>2013-11-06T16:10:29Z</time>
      </trkpt>
      <trkpt lat="43.00577" lon="-0.10064">
        <ele>455.8</ele>
        <time>2013-11-06T16:10:54Z</time>
      </trkpt>
      <trkpt lat="43.00578" lon="-0.10063">
        <ele>455.32</ele>
        <time>2013-11-06T16:11:18Z</time>
      </trkpt>
      <trkpt lat="43.00577" lon="-0.10062">
        <ele>455.32</ele>
        <time>2013-11-06T16:11:44Z</time>
      </trkpt>
      <trkpt lat="43.00577" lon="-0.10061">
        <ele>455.8</ele>
        <time>2013-11-06T16:12:14Z</time>
      </trkpt>
      <trkpt lat="43.00577" lon="-0.10062">
        <ele>455.8</ele>
        <time>2013-11-06T16:12:38Z</time>
      </trkpt>
      <trkpt lat="43.00577" lon="-0.10063">
        <ele>455.8</ele>
        <time>2013-11-06T16:13:02Z</time>
      </trkpt>
      <trkpt lat="43.00577" lon="-0.10063">
        <ele>455.32</ele>
        <time>2013-11-06T16:13:26Z</time>
      </trkpt>
      <trkpt lat="43.00577" lon="-0.10063">
        <ele>455.32</ele>
        <time>2013-11-06T16:13:56Z</time>
      </trkpt>
      <trkpt lat="43.00577" lon="-0.10062">
        <ele>455.32</ele>
        <time>2013-11-06T16:14:18Z</time>
      </trkpt>
      <trkpt lat="43.00586" lon="-0.10049">
        <ele>454.84</ele>
        <time>2013-11-06T16:14:24Z</time>
      </trkpt>
      <trkpt lat="43.00588" lon="-0.10043">
        <ele>454.84</ele>
        <time>2013-11-06T16:14:26Z</time>
      </trkpt>
      <trkpt lat="43.00582" lon="-0.10022">
        <ele>451</ele>
        <time>2013-11-06T16:14:30Z</time>
      </trkpt>
      <trkpt lat="43.00577" lon="-0.09993">
        <ele>446.67</ele>
        <time>2013-11-06T16:14:35Z</time>
      </trkpt>
      <trkpt lat="43.00574" lon="-0.09983">
        <ele>444.75</ele>
        <time>2013-11-06T16:14:37Z</time>
      </trkpt>
      <trkpt lat="43.00574" lon="-0.09972">
        <ele>443.79</ele>
        <time>2013-11-06T16:14:39Z</time>
      </trkpt>
      <trkpt lat="43.00572" lon="-0.09957">
        <ele>441.86</ele>
        <time>2013-11-06T16:14:41Z</time>
      </trkpt>
      <trkpt lat="43.00569" lon="-0.09941">
        <ele>439.94</ele>
        <time>2013-11-06T16:14:43Z</time>
      </trkpt>
      <trkpt lat="43.0056" lon="-0.09916">
        <ele>437.54</ele>
        <time>2013-11-06T16:14:47Z</time>
      </trkpt>
      <trkpt lat="43.00552" lon="-0.09896">
        <ele>437.54</ele>
        <time>2013-11-06T16:14:50Z</time>
      </trkpt>
      <trkpt lat="43.00544" lon="-0.09881">
        <ele>437.06</ele>
        <time>2013-11-06T16:14:54Z</time>
      </trkpt>
      <trkpt lat="43.00537" lon="-0.09859">
        <ele>437.06</ele>
        <time>2013-11-06T16:14:59Z</time>
      </trkpt>
      <trkpt lat="43.00538" lon="-0.098">
        <ele>436.1</ele>
        <time>2013-11-06T16:15:07Z</time>
      </trkpt>
      <trkpt lat="43.00549" lon="-0.09739">
        <ele>434.65</ele>
        <time>2013-11-06T16:15:14Z</time>
      </trkpt>
      <trkpt lat="43.00558" lon="-0.09694">
        <ele>433.69</ele>
        <time>2013-11-06T16:15:19Z</time>
      </trkpt>
      <trkpt lat="43.00571" lon="-0.0966">
        <ele>431.77</ele>
        <time>2013-11-06T16:15:23Z</time>
      </trkpt>
      <trkpt lat="43.0058" lon="-0.09598">
        <ele>430.33</ele>
        <time>2013-11-06T16:15:31Z</time>
      </trkpt>
      <trkpt lat="43.00583" lon="-0.09594">
        <ele>430.81</ele>
        <time>2013-11-06T16:15:32Z</time>
      </trkpt>
      <trkpt lat="43.00606" lon="-0.09495">
        <ele>428.89</ele>
        <time>2013-11-06T16:15:45Z</time>
      </trkpt>
      <trkpt lat="43.0063" lon="-0.09391">
        <ele>426.96</ele>
        <time>2013-11-06T16:15:56Z</time>
      </trkpt>
      <trkpt lat="43.00635" lon="-0.09338">
        <ele>426</ele>
        <time>2013-11-06T16:16:01Z</time>
      </trkpt>
      <trkpt lat="43.00658" lon="-0.09278">
        <ele>425.04</ele>
        <time>2013-11-06T16:16:08Z</time>
      </trkpt>
      <trkpt lat="43.00669" lon="-0.09236">
        <ele>424.08</ele>
        <time>2013-11-06T16:16:13Z</time>
      </trkpt>
      <trkpt lat="43.00629" lon="-0.09089">
        <ele>423.6</ele>
        <time>2013-11-06T16:16:29Z</time>
      </trkpt>
      <trkpt lat="43.0061" lon="-0.08975">
        <ele>423.12</ele>
        <time>2013-11-06T16:16:41Z</time>
      </trkpt>
      <trkpt lat="43.00592" lon="-0.08922">
        <ele>423.12</ele>
        <time>2013-11-06T16:16:47Z</time>
      </trkpt>
      <trkpt lat="43.00559" lon="-0.08797">
        <ele>421.19</ele>
        <time>2013-11-06T16:17:01Z</time>
      </trkpt>
      <trkpt lat="43.00556" lon="-0.08663">
        <ele>419.27</ele>
        <time>2013-11-06T16:17:15Z</time>
      </trkpt>
      <trkpt lat="43.00545" lon="-0.08582">
        <ele>417.35</ele>
        <time>2013-11-06T16:17:23Z</time>
      </trkpt>
      <trkpt lat="43.00528" lon="-0.08528">
        <ele>417.35</ele>
        <time>2013-11-06T16:17:30Z</time>
      </trkpt>
      <trkpt lat="43.00532" lon="-0.08503">
        <ele>416.87</ele>
        <time>2013-11-06T16:17:33Z</time>
      </trkpt>
      <trkpt lat="43.00504" lon="-0.08362">
        <ele>415.91</ele>
        <time>2013-11-06T16:17:49Z</time>
      </trkpt>
      <trkpt lat="43.00502" lon="-0.08354">
        <ele>415.91</ele>
        <time>2013-11-06T16:17:50Z</time>
      </trkpt>
      <trkpt lat="43.00509" lon="-0.083">
        <ele>416.39</ele>
        <time>2013-11-06T16:17:57Z</time>
      </trkpt>
      <trkpt lat="43.00505" lon="-0.08257">
        <ele>417.35</ele>
        <time>2013-11-06T16:18:04Z</time>
      </trkpt>
      <trkpt lat="43.00512" lon="-0.08228">
        <ele>417.83</ele>
        <time>2013-11-06T16:18:09Z</time>
      </trkpt>
      <trkpt lat="43.00511" lon="-0.08217">
        <ele>417.35</ele>
        <time>2013-11-06T16:18:11Z</time>
      </trkpt>
      <trkpt lat="43.00501" lon="-0.08227">
        <ele>416.87</ele>
        <time>2013-11-06T16:18:17Z</time>
      </trkpt>
      <trkpt lat="43.00501" lon="-0.08242">
        <ele>416.87</ele>
        <time>2013-11-06T16:18:26Z</time>
      </trkpt>
      <trkpt lat="43.00502" lon="-0.08242">
        <ele>417.35</ele>
        <time>2013-11-06T16:18:28Z</time>
      </trkpt>
      <trkpt lat="43.00504" lon="-0.08242">
        <ele>416.87</ele>
        <time>2013-11-06T16:18:40Z</time>
      </trkpt>
      <trkpt lat="43.00504" lon="-0.08242">
        <ele>416.39</ele>
        <time>2013-11-06T16:19:18Z</time>
      </trkpt>
      <trkpt lat="43.00503" lon="-0.08244">
        <ele>416.87</ele>
        <time>2013-11-06T16:19:51Z</time>
      </trkpt>
      <trkpt lat="43.00503" lon="-0.08243">
        <ele>417.83</ele>
        <time>2013-11-06T16:19:58Z</time>
      </trkpt>
      <trkpt lat="43.00503" lon="-0.08241">
        <ele>417.35</ele>
        <time>2013-11-06T16:20:17Z</time>
      </trkpt>
    </trkseg>
  </trk>
</gpx>